Home > Products > Valid Products > TAF

000
FTUS42 KRAH 021351 AAC
TAFGSO
TAF AMD
KGSO 021351Z 0214/0312 VRB03KT 1SM BR BKN003
      TEMPO 0214/0215 5SM BR SCT005
     FM021500 VRB03KT P6SM SCT045
     FM030700 VRB03KT 5SM BR SCT005=



000
FTUS42 KRAH 021351 AAC
TAFINT
TAF AMD
KINT 021351Z 0214/0312 VRB03KT 2SM BR BKN002
      TEMPO 0214/0215 5SM BR SCT002
     FM021500 VRB03KT P6SM SCT045
     FM030700 VRB03KT 5SM BR SCT005=



000
FTUS42 KRAH 021351 AAC
TAFINT
TAF AMD
KINT 021351Z 0214/0312 VRB03KT 2SM BR BKN002
      TEMPO 0214/0215 5SM BR SCT002
     FM021500 VRB03KT P6SM SCT045
     FM030700 VRB03KT 5SM BR SCT005=



000
FTUS42 KRAH 021306 AAB
TAFINT
TAF AMD
KINT 021306Z 0213/0312 VRB03KT 1SM BR BKN002
      TEMPO 0213/0214 5SM BR SCT002
     FM021400 VRB03KT P6SM SCT045
     FM030700 VRB03KT 5SM BR SCT005=



000
FTUS42 KRAH 021306 AAB
TAFINT
TAF AMD
KINT 021306Z 0213/0312 VRB03KT 1SM BR BKN002
      TEMPO 0213/0214 5SM BR SCT002
     FM021400 VRB03KT P6SM SCT045
     FM030700 VRB03KT 5SM BR SCT005=



000
FTUS42 KRAH 021304 AAB
TAFGSO
TAF AMD
KGSO 021304Z 0213/0312 05005KT 1/2SM FG BKN001
      TEMPO 0213/0214 6SM BR SCT003
     FM021400 VRB05KT P6SM SCT050
     FM030700 VRB03KT 5SM BR SCT005=



000
FTUS42 KRAH 021304 AAB
TAFGSO
TAF AMD
KGSO 021304Z 0213/0312 05005KT 1/2SM FG BKN001
      TEMPO 0213/0214 6SM BR SCT003
     FM021400 VRB05KT P6SM SCT050
     FM030700 VRB03KT 5SM BR SCT005=



000
FTUS42 KRAH 021259 AAA
TAFRWI
TAF AMD
KRWI 021259Z 0213/0312 00000KT 1/2SM FG BKN002
      TEMPO 0213/0214 5SM BR SCT003
     FM021400 VRB05KT P6SM SCT050
     FM030700 VRB03KT 5SM BR SCT005=



000
FTUS42 KRAH 021259 AAA
TAFRWI
TAF AMD
KRWI 021259Z 0213/0312 00000KT 1/2SM FG BKN002
      TEMPO 0213/0214 5SM BR SCT003
     FM021400 VRB05KT P6SM SCT050
     FM030700 VRB03KT 5SM BR SCT005=



000
FTUS42 KRAH 021258 AAA
TAFFAY
TAF AMD
KFAY 021258Z 0213/0312 00000KT 4SM BR SCT005
      TEMPO 0213/0214 VRB05KT P6SM NSW
     FM021400 VRB05KT P6SM SCT050
     FM030700 VRB03KT 5SM BR SCT005=



000
FTUS42 KRAH 021258 AAA
TAFFAY
TAF AMD
KFAY 021258Z 0213/0312 00000KT 4SM BR SCT005
      TEMPO 0213/0214 VRB05KT P6SM NSW
     FM021400 VRB05KT P6SM SCT050
     FM030700 VRB03KT 5SM BR SCT005=



000
FTUS42 KRAH 021253 AAA
TAFRDU
TAF AMD
KRDU 021253Z 0213/0312 00000KT 3SM BR SCT020
      TEMPO 0213/0214 VRB05KT P6SM NSW
     FM021400 VRB05KT P6SM SCT050
     FM030700 VRB03KT 5SM BR SCT005=



000
FTUS42 KRAH 021253 AAA
TAFRDU
TAF AMD
KRDU 021253Z 0213/0312 00000KT 3SM BR SCT020
      TEMPO 0213/0214 VRB05KT P6SM NSW
     FM021400 VRB05KT P6SM SCT050
     FM030700 VRB03KT 5SM BR SCT005=



000
FTUS42 KRAH 021251 AAA
TAFGSO
TAF AMD
KGSO 021251Z 0213/0312 05005KT 1SM BR BKN003
      TEMPO 0213/0214 6SM BR SCT003
     FM021400 VRB05KT P6SM SCT050
     FM030700 VRB03KT 5SM BR SCT005=



000
FTUS42 KRAH 021251 AAA
TAFGSO
TAF AMD
KGSO 021251Z 0213/0312 05005KT 1SM BR BKN003
      TEMPO 0213/0214 6SM BR SCT003
     FM021400 VRB05KT P6SM SCT050
     FM030700 VRB03KT 5SM BR SCT005=



000
FTUS42 KRAH 021249 AAA
TAFINT
TAF AMD
KINT 021249Z 0213/0312 00000KT 2SM BR SKC
      TEMPO 0213/0214 P6SM NSW SKC
     FM021400 VRB03KT P6SM SCT045
     FM030700 VRB03KT 5SM BR SCT005=



000
FTUS42 KRAH 021132
TAFRWI
TAF
KRWI 021132Z 0212/0312 00000KT 1/4SM FG OVC003
     FM021330 VRB02KT 4SM BR BKN012
     FM021500 VRB03KT P6SM FEW015 BKN025 BKN070
     FM021700 VRB05KT P6SM BKN035
     FM030700 VRB03KT 5SM BR FEW005 SCT040=



000
FTUS42 KRAH 021132
TAFRDU
TAF
KRDU 021132Z 0212/0312 00000KT 4SM BCFG BR FEW020 SCT070
      TEMPO 0212/0213 2SM BR BKN002
     FM021300 VRB02KT 4SM BR SCT012 SCT070
     FM021400 VRB03KT P6SM FEW015 BKN025 BKN070
     FM021600 VRB05KT P6SM BKN035
     FM030700 VRB03KT 5SM BR FEW005 SCT040=



000
FTUS42 KRAH 021132
TAFINT
TAF
KINT 021132Z 0212/0312 00000KT 3SM BR FEW009
      TEMPO 0212/0213 1SM BR BKN009
     FM021300 VRB02KT 4SM BR BKN012
     FM021400 VRB03KT P6SM FEW015 BKN025 BKN070
     FM021600 VRB05KT P6SM BKN035
     FM030700 VRB03KT 5SM BR FEW005 SCT040=



000
FTUS42 KRAH 021132
TAFFAY
TAF
KFAY 021132Z 0212/0312 00000KT 1SM BR SCT005
     FM021330 VRB02KT 5SM BR BKN012
     FM021500 VRB03KT P6SM FEW015 BKN025 BKN070
     FM021700 VRB05KT P6SM BKN035
     FM030700 VRB03KT 5SM BR FEW005 SCT040=



000
FTUS42 KRAH 021132
TAFGSO
TAF
KGSO 021132Z 0212/0312 00000KT 3SM MIFG BR SCT080
      TEMPO 0212/0213 2SM BR SCT002 SCT090
     FM021300 VRB02KT 4SM BR BKN012
     FM021400 VRB03KT P6SM FEW015 BKN025 BKN070
     FM021600 VRB05KT P6SM BKN035
     FM030700 VRB03KT 5SM BR FEW005 SCT040=



000
FTUS42 KRAH 021132
TAFFAY
TAF
KFAY 021132Z 0212/0312 00000KT 1SM BR SCT005
     FM021330 VRB02KT 5SM BR BKN012
     FM021500 VRB03KT P6SM FEW015 BKN025 BKN070
     FM021700 VRB05KT P6SM BKN035
     FM030700 VRB03KT 5SM BR FEW005 SCT040=



000
FTUS42 KRAH 021132
TAFRDU
TAF
KRDU 021132Z 0212/0312 00000KT 4SM BCFG BR FEW020 SCT070
      TEMPO 0212/0213 2SM BR BKN002
     FM021300 VRB02KT 4SM BR SCT012 SCT070
     FM021400 VRB03KT P6SM FEW015 BKN025 BKN070
     FM021600 VRB05KT P6SM BKN035
     FM030700 VRB03KT 5SM BR FEW005 SCT040=



000
FTUS42 KRAH 021132
TAFRWI
TAF
KRWI 021132Z 0212/0312 00000KT 1/4SM FG OVC003
     FM021330 VRB02KT 4SM BR BKN012
     FM021500 VRB03KT P6SM FEW015 BKN025 BKN070
     FM021700 VRB05KT P6SM BKN035
     FM030700 VRB03KT 5SM BR FEW005 SCT040=



000
FTUS42 KRAH 021132
TAFGSO
TAF
KGSO 021132Z 0212/0312 00000KT 3SM MIFG BR SCT080
      TEMPO 0212/0213 2SM BR SCT002 SCT090
     FM021300 VRB02KT 4SM BR BKN012
     FM021400 VRB03KT P6SM FEW015 BKN025 BKN070
     FM021600 VRB05KT P6SM BKN035
     FM030700 VRB03KT 5SM BR FEW005 SCT040=



000
FTUS42 KRAH 021132
TAFINT
TAF
KINT 021132Z 0212/0312 00000KT 3SM BR FEW009
      TEMPO 0212/0213 1SM BR BKN009
     FM021300 VRB02KT 4SM BR BKN012
     FM021400 VRB03KT P6SM FEW015 BKN025 BKN070
     FM021600 VRB05KT P6SM BKN035
     FM030700 VRB03KT 5SM BR FEW005 SCT040=



000
FTUS42 KRAH 020906 AAA
TAFRDU
TAF AMD
KRDU 020906Z 0209/0306 00000KT 4SM BCFG BR FEW003 SCT080
      TEMPO 0209/0213 2SM BR BKN002
     FM021300 VRB02KT 4SM BR BKN012
     FM021400 VRB03KT P6SM FEW015 BKN025 BKN070
     FM021600 VRB05KT P6SM BKN035=



000
FTUS42 KRAH 020906 AAA
TAFRDU
TAF AMD
KRDU 020906Z 0209/0306 00000KT 4SM BCFG BR FEW003 SCT080
      TEMPO 0209/0213 2SM BR BKN002
     FM021300 VRB02KT 4SM BR BKN012
     FM021400 VRB03KT P6SM FEW015 BKN025 BKN070
     FM021600 VRB05KT P6SM BKN035=



000
FTUS42 KRAH 020905 AAA
TAFGSO
TAF AMD
KGSO 020905Z 0209/0306 00000KT 1/2SM FG BKN002
      TEMPO 0210/0213 2SM BR SCT002 SCT090
     FM021300 VRB02KT 4SM BR BKN012
     FM021400 VRB03KT P6SM FEW015 BKN025 BKN070
     FM021600 VRB05KT P6SM BKN035=



000
FTUS42 KRAH 020905 AAA
TAFGSO
TAF AMD
KGSO 020905Z 0209/0306 00000KT 1/2SM FG BKN002
      TEMPO 0210/0213 2SM BR SCT002 SCT090
     FM021300 VRB02KT 4SM BR BKN012
     FM021400 VRB03KT P6SM FEW015 BKN025 BKN070
     FM021600 VRB05KT P6SM BKN035=



000
FTUS42 KRAH 020904 AAC
TAFRWI
TAF AMD
KRWI 020904Z 0209/0306 00000KT 1/4SM FG OVC003
      TEMPO 0209/0212 2SM BR SCT003 OVC090
     FM021300 VRB02KT 4SM BR BKN012
     FM021400 VRB03KT P6SM FEW015 BKN025 BKN070
     FM021600 VRB05KT P6SM BKN035=



000
FTUS42 KRAH 020839 AAA
TAFINT
TAF AMD
KINT 020839Z 0209/0306 00000KT 1SM BR SKC
      TEMPO 0210/0213 1/2SM FG VV002
     FM021300 VRB02KT 4SM BR BKN012
     FM021400 VRB03KT P6SM FEW015 BKN025 BKN070
     FM021600 VRB05KT P6SM BKN035=



000
FTUS42 KRAH 020839 AAA
TAFINT
TAF AMD
KINT 020839Z 0209/0306 00000KT 1SM BR SKC
      TEMPO 0210/0213 1/2SM FG VV002
     FM021300 VRB02KT 4SM BR BKN012
     FM021400 VRB03KT P6SM FEW015 BKN025 BKN070
     FM021600 VRB05KT P6SM BKN035=



000
FTUS42 KRAH 020809 AAB
TAFFAY
TAF AMD
KFAY 020809Z 0208/0306 01003KT 4SM BR FEW045 OVC100
     FM020900 00000KT 2SM BR SCT003
     FM021300 VRB02KT 6SM BR BKN012
     FM021400 VRB03KT P6SM FEW015 BKN025 BKN070
     FM021600 VRB05KT P6SM BKN035=



000
FTUS42 KRAH 020809 AAB
TAFFAY
TAF AMD
KFAY 020809Z 0208/0306 01003KT 4SM BR FEW045 OVC100
     FM020900 00000KT 2SM BR SCT003
     FM021300 VRB02KT 6SM BR BKN012
     FM021400 VRB03KT P6SM FEW015 BKN025 BKN070
     FM021600 VRB05KT P6SM BKN035=



000
FTUS42 KRAH 020800 AAB
TAFRWI
TAF AMD
KRWI 020800Z 0208/0306 00000KT 1/4SM FG OVC003
      TEMPO 0208/0212 1SM BR BKN005
     FM021300 VRB02KT 4SM BR BKN012
     FM021400 VRB03KT P6SM FEW015 BKN025 BKN070
     FM021600 VRB05KT P6SM BKN035=



000
FTUS42 KRAH 020800 AAB
TAFRWI
TAF AMD
KRWI 020800Z 0208/0306 00000KT 1/4SM FG OVC003
      TEMPO 0208/0212 1SM BR BKN005
     FM021300 VRB02KT 4SM BR BKN012
     FM021400 VRB03KT P6SM FEW015 BKN025 BKN070
     FM021600 VRB05KT P6SM BKN035=



000
FTUS42 KRAH 020719 AAA
TAFFAY
TAF AMD
KFAY 020719Z 0207/0306 03003KT 1/2SM FG OVC100
     FM020900 00000KT 2SM BR SCT003
      TEMPO 0209/0213 1/2SM FG VV002
     FM021300 VRB02KT 4SM BR BKN012
     FM021400 VRB03KT P6SM FEW015 BKN025 BKN070
     FM021600 VRB05KT P6SM BKN035=



000
FTUS42 KRAH 020719 AAA
TAFFAY
TAF AMD
KFAY 020719Z 0207/0306 03003KT 1/2SM FG OVC100
     FM020900 00000KT 2SM BR SCT003
      TEMPO 0209/0213 1/2SM FG VV002
     FM021300 VRB02KT 4SM BR BKN012
     FM021400 VRB03KT P6SM FEW015 BKN025 BKN070
     FM021600 VRB05KT P6SM BKN035=



000
FTUS42 KRAH 020719 AAA
TAFRWI
TAF AMD
KRWI 020719Z 0207/0306 00000KT 3SM BR OVC035
      TEMPO 0208/0212 1SM BR BKN002
     FM021300 VRB02KT 4SM BR BKN012
     FM021400 VRB03KT P6SM FEW015 BKN025 BKN070
     FM021600 VRB05KT P6SM BKN035=



000
FTUS42 KRAH 020719 AAA
TAFRWI
TAF AMD
KRWI 020719Z 0207/0306 00000KT 3SM BR OVC035
      TEMPO 0208/0212 1SM BR BKN002
     FM021300 VRB02KT 4SM BR BKN012
     FM021400 VRB03KT P6SM FEW015 BKN025 BKN070
     FM021600 VRB05KT P6SM BKN035=



000
FTUS42 KRAH 020554 CCA
TAFRWI
TAF COR
KRWI 020554Z 0206/0306 00000KT 1SM BR BKN005
      TEMPO 0208/0212 1/4SM FG OVC002
     FM021300 VRB02KT 4SM BR BKN012
     FM021400 VRB03KT P6SM FEW015 BKN025 BKN070
     FM021600 VRB05KT P6SM BKN035=



000
FTUS42 KRAH 020554 CCA
TAFRWI
TAF COR
KRWI 020554Z 0206/0306 00000KT 1SM BR BKN005
      TEMPO 0208/0212 1/4SM FG OVC002
     FM021300 VRB02KT 4SM BR BKN012
     FM021400 VRB03KT P6SM FEW015 BKN025 BKN070
     FM021600 VRB05KT P6SM BKN035=



000
FTUS42 KRAH 020532
TAFFAY
TAF
KFAY 020532Z 0206/0306 00000KT 2SM BR SCT070
     FM020900 00000KT 2SM BR SCT003
      TEMPO 0209/0213 1/2SM FG VV002
     FM021300 VRB02KT 4SM BR BKN012
     FM021400 VRB03KT P6SM FEW015 BKN025 BKN070
     FM021600 VRB05KT P6SM BKN035=



000
FTUS42 KRAH 020532
TAFRDU
TAF
KRDU 020532Z 0206/0306 00000KT 6SM BCFG BR FEW003 SCT080
     FM020900 00000KT 2SM BR SCT003
      TEMPO 0209/0213 1/2SM FG VV002
     FM021300 VRB02KT 4SM BR BKN012
     FM021400 VRB03KT P6SM FEW015 BKN025 BKN070
     FM021600 VRB05KT P6SM BKN035=



000
FTUS42 KRAH 020532
TAFGSO
TAF
KGSO 020532Z 0206/0306 00000KT 5SM BR SCT070
     FM020900 00000KT 2SM BR SCT003
      TEMPO 0210/0213 1/2SM FG VV002
     FM021300 VRB02KT 4SM BR BKN012
     FM021400 VRB03KT P6SM FEW015 BKN025 BKN070
     FM021600 VRB05KT P6SM BKN035=



000
FTUS42 KRAH 020532
TAFRWI
TAF
KRWI 020532Z 0206/0306 00000KT 1/4SM FG OVC002
      TEMPO 0209/0213 1SM BR SCT002
     FM021300 VRB02KT 4SM BR BKN012
     FM021400 VRB03KT P6SM FEW015 BKN025 BKN070
     FM021600 VRB05KT P6SM BKN035=



000
FTUS42 KRAH 020532
TAFINT
TAF
KINT 020532Z 0206/0306 00000KT 6SM BR SCT070
     FM020900 00000KT 2SM BR SCT003
      TEMPO 0210/0213 1/2SM FG VV002
     FM021300 VRB02KT 4SM BR BKN012
     FM021400 VRB03KT P6SM FEW015 BKN025 BKN070
     FM021600 VRB05KT P6SM BKN035=



000
FTUS42 KRAH 020532
TAFRWI
TAF
KRWI 020532Z 0206/0306 00000KT 1/4SM FG OVC002
      TEMPO 0209/0213 1SM BR SCT002
     FM021300 VRB02KT 4SM BR BKN012
     FM021400 VRB03KT P6SM FEW015 BKN025 BKN070
     FM021600 VRB05KT P6SM BKN035=



000
FTUS42 KRAH 020532
TAFGSO
TAF
KGSO 020532Z 0206/0306 00000KT 5SM BR SCT070
     FM020900 00000KT 2SM BR SCT003
      TEMPO 0210/0213 1/2SM FG VV002
     FM021300 VRB02KT 4SM BR BKN012
     FM021400 VRB03KT P6SM FEW015 BKN025 BKN070
     FM021600 VRB05KT P6SM BKN035=



000
FTUS42 KRAH 020532
TAFFAY
TAF
KFAY 020532Z 0206/0306 00000KT 2SM BR SCT070
     FM020900 00000KT 2SM BR SCT003
      TEMPO 0209/0213 1/2SM FG VV002
     FM021300 VRB02KT 4SM BR BKN012
     FM021400 VRB03KT P6SM FEW015 BKN025 BKN070
     FM021600 VRB05KT P6SM BKN035=



000
FTUS42 KRAH 020532
TAFINT
TAF
KINT 020532Z 0206/0306 00000KT 6SM BR SCT070
     FM020900 00000KT 2SM BR SCT003
      TEMPO 0210/0213 1/2SM FG VV002
     FM021300 VRB02KT 4SM BR BKN012
     FM021400 VRB03KT P6SM FEW015 BKN025 BKN070
     FM021600 VRB05KT P6SM BKN035=



000
FTUS42 KRAH 020532
TAFRDU
TAF
KRDU 020532Z 0206/0306 00000KT 6SM BCFG BR FEW003 SCT080
     FM020900 00000KT 2SM BR SCT003
      TEMPO 0209/0213 1/2SM FG VV002
     FM021300 VRB02KT 4SM BR BKN012
     FM021400 VRB03KT P6SM FEW015 BKN025 BKN070
     FM021600 VRB05KT P6SM BKN035=



000
FTUS42 KRAH 020410 AAC
TAFRWI
TAF AMD
KRWI 020410Z 0204/0224 00000KT 1/4SM FG VV002
     FM021230 00000KT 1/2SM FG OVC004
     FM021400 VRB04KT P6SM OVC015
     FM021600 VRB05KT P6SM FEW050 SCT250=



000
FTUS42 KRAH 020239 AAB
TAFRWI
TAF AMD
KRWI 020239Z 0203/0224 00000KT 1SM BR FEW002
      TEMPO 0203/0206 1/2SM FG
     FM020600 00000KT 1/2SM FG OVC004
      TEMPO 0208/0212 1/4SM FG VV002
     FM021300 VRB04KT P6SM OVC015
     FM021600 VRB05KT P6SM FEW050 SCT250=



000
FTUS42 KRAH 020239 AAB
TAFRWI
TAF AMD
KRWI 020239Z 0203/0224 00000KT 1SM BR FEW002
      TEMPO 0203/0206 1/2SM FG
     FM020600 00000KT 1/2SM FG OVC004
      TEMPO 0208/0212 1/4SM FG VV002
     FM021300 VRB04KT P6SM OVC015
     FM021600 VRB05KT P6SM FEW050 SCT250=



000
FTUS42 KRAH 020214 AAA
TAFRDU
TAF AMD
KRDU 020214Z 0202/0224 00000KT P6SM SCT025 BKN250
     FM020300 00000KT 5SM BR SCT250
     FM020600 00000KT 2SM BR FEW002
      TEMPO 0209/0213 1/2SM FG VV002
     FM021300 VRB04KT P6SM OVC015
     FM021600 VRB05KT P6SM FEW050 SCT250=



000
FTUS42 KRAH 020213 AAA
TAFGSO
TAF AMD
KGSO 020213Z 0202/0224 00000KT P6SM SCT025 BKN250
     FM020300 00000KT 5SM BR SCT250
     FM020600 00000KT 2SM BR FEW002
      TEMPO 0209/0213 1/2SM FG VV002
     FM021300 VRB04KT P6SM OVC015
     FM021600 VRB05KT P6SM FEW050 SCT250=



000
FTUS42 KRAH 020139 AAA
TAFRWI
TAF AMD
KRWI 020139Z 0202/0224 00000KT 2SM BR FEW002
      TEMPO 0208/0212 1/4SM FG VV002
     FM021200 VRB04KT P6SM OVC015
     FM021600 VRB05KT P6SM FEW050 SCT250=



000
FTUS42 KRAH 012334
TAFRWI
TAF
KRWI 012334Z 0200/0224 VRB02KT P6SM SCT025 BKN250
     FM020200 00000KT 5SM BR SCT250
     FM020600 00000KT 2SM BR FEW002
      TEMPO 0208/0212 1/4SM FG VV002
     FM021200 VRB04KT P6SM OVC015
     FM021600 VRB05KT P6SM FEW050 SCT250=



000
FTUS42 KRAH 012334
TAFFAY
TAF
KFAY 012334Z 0200/0224 VRB02KT P6SM SCT025 BKN250
     FM020300 00000KT 5SM BR SCT250
     FM020600 00000KT 2SM BR FEW002
      TEMPO 0208/0212 1/4SM FG VV002
     FM021200 VRB04KT P6SM OVC015
     FM021600 VRB05KT P6SM FEW050 SCT250=



000
FTUS42 KRAH 012334
TAFGSO
TAF
KGSO 012334Z 0200/0224 00000KT P6SM SCT025 BKN250
     FM020300 00000KT 5SM BR SCT250
     FM020600 00000KT 2SM BR FEW002
      TEMPO 0209/0213 1/2SM FG VV002
     FM021300 VRB04KT P6SM OVC015
     FM021600 VRB05KT P6SM FEW050 SCT250=



000
FTUS42 KRAH 012334
TAFINT
TAF
KINT 012334Z 0200/0224 00000KT P6SM SCT025 BKN250
     FM020300 00000KT 5SM BR SCT250
     FM020600 00000KT 2SM BR FEW002
      TEMPO 0209/0213 1/2SM FG VV002
     FM021300 VRB04KT P6SM OVC015
     FM021600 VRB05KT P6SM FEW050 SCT250=



000
FTUS42 KRAH 012334
TAFRDU
TAF
KRDU 012334Z 0200/0224 00000KT P6SM SCT025 BKN250
     FM020300 00000KT 5SM BR SCT250
     FM020600 00000KT 2SM BR FEW002
      TEMPO 0209/0213 1/2SM FG VV002
     FM021300 VRB04KT P6SM OVC015
     FM021600 VRB05KT P6SM FEW050 SCT250=



000
FTUS42 KRAH 012334
TAFGSO
TAF
KGSO 012334Z 0200/0224 00000KT P6SM SCT025 BKN250
     FM020300 00000KT 5SM BR SCT250
     FM020600 00000KT 2SM BR FEW002
      TEMPO 0209/0213 1/2SM FG VV002
     FM021300 VRB04KT P6SM OVC015
     FM021600 VRB05KT P6SM FEW050 SCT250=



000
FTUS42 KRAH 012334
TAFRDU
TAF
KRDU 012334Z 0200/0224 00000KT P6SM SCT025 BKN250
     FM020300 00000KT 5SM BR SCT250
     FM020600 00000KT 2SM BR FEW002
      TEMPO 0209/0213 1/2SM FG VV002
     FM021300 VRB04KT P6SM OVC015
     FM021600 VRB05KT P6SM FEW050 SCT250=



000
FTUS42 KRAH 012334
TAFRWI
TAF
KRWI 012334Z 0200/0224 VRB02KT P6SM SCT025 BKN250
     FM020200 00000KT 5SM BR SCT250
     FM020600 00000KT 2SM BR FEW002
      TEMPO 0208/0212 1/4SM FG VV002
     FM021200 VRB04KT P6SM OVC015
     FM021600 VRB05KT P6SM FEW050 SCT250=



000
FTUS42 KRAH 012334
TAFINT
TAF
KINT 012334Z 0200/0224 00000KT P6SM SCT025 BKN250
     FM020300 00000KT 5SM BR SCT250
     FM020600 00000KT 2SM BR FEW002
      TEMPO 0209/0213 1/2SM FG VV002
     FM021300 VRB04KT P6SM OVC015
     FM021600 VRB05KT P6SM FEW050 SCT250=



000
FTUS42 KRAH 012334
TAFFAY
TAF
KFAY 012334Z 0200/0224 VRB02KT P6SM SCT025 BKN250
     FM020300 00000KT 5SM BR SCT250
     FM020600 00000KT 2SM BR FEW002
      TEMPO 0208/0212 1/4SM FG VV002
     FM021200 VRB04KT P6SM OVC015
     FM021600 VRB05KT P6SM FEW050 SCT250=



000
FTUS42 KRAH 012001 AAA
TAFFAY
TAF AMD
KFAY 012001Z 0120/0218 VRB04KT P6SM SCT025
      TEMPO 0208/0212 3SM BR SCT002=



000
FTUS42 KRAH 012001 AAA
TAFFAY
TAF AMD
KFAY 012001Z 0120/0218 VRB04KT P6SM SCT025
      TEMPO 0208/0212 3SM BR SCT002=



000
FTUS42 KRAH 011738
TAFINT
TAF
KINT 011738Z 0118/0218 VRB05KT P6SM SCT015
      TEMPO 0118/0120 BKN015
     FM012000 00000KT P6SM SCT025
      TEMPO 0208/0212 3SM BR SCT002=



000
FTUS42 KRAH 011738
TAFRDU
TAF
KRDU 011738Z 0118/0218 VRB03KT P6SM BKN025
      TEMPO 0118/0120 SCT025
     FM012000 00000KT P6SM SCT025
      TEMPO 0208/0212 3SM BR SCT002=



000
FTUS42 KRAH 011738
TAFGSO
TAF
KGSO 011738Z 0118/0218 VRB05KT P6SM SCT015
      TEMPO 0118/0120 BKN015
     FM012000 00000KT P6SM SCT025
      TEMPO 0208/0212 3SM BR SCT002=



000
FTUS42 KRAH 011738
TAFFAY
TAF
KFAY 011738Z 0118/0218 VRB05KT P6SM SCT025
      TEMPO 0118/0121 BKN025
     FM012100 00000KT P6SM SCT025
      TEMPO 0208/0212 3SM BR SCT002=



000
FTUS42 KRAH 011738
TAFRWI
TAF
KRWI 011738Z 0118/0218 VRB03KT P6SM SCT025
      TEMPO 0118/0120 BKN025
     FM012000 00000KT P6SM SCT025
      TEMPO 0208/0212 3SM BR SCT002=



000
FTUS42 KRAH 011738
TAFFAY
TAF
KFAY 011738Z 0118/0218 VRB05KT P6SM SCT025
      TEMPO 0118/0121 BKN025
     FM012100 00000KT P6SM SCT025
      TEMPO 0208/0212 3SM BR SCT002=



000
FTUS42 KRAH 011738
TAFGSO
TAF
KGSO 011738Z 0118/0218 VRB05KT P6SM SCT015
      TEMPO 0118/0120 BKN015
     FM012000 00000KT P6SM SCT025
      TEMPO 0208/0212 3SM BR SCT002=



000
FTUS42 KRAH 011738
TAFINT
TAF
KINT 011738Z 0118/0218 VRB05KT P6SM SCT015
      TEMPO 0118/0120 BKN015
     FM012000 00000KT P6SM SCT025
      TEMPO 0208/0212 3SM BR SCT002=



000
FTUS42 KRAH 011738
TAFRWI
TAF
KRWI 011738Z 0118/0218 VRB03KT P6SM SCT025
      TEMPO 0118/0120 BKN025
     FM012000 00000KT P6SM SCT025
      TEMPO 0208/0212 3SM BR SCT002=



000
FTUS42 KRAH 011738
TAFRDU
TAF
KRDU 011738Z 0118/0218 VRB03KT P6SM BKN025
      TEMPO 0118/0120 SCT025
     FM012000 00000KT P6SM SCT025
      TEMPO 0208/0212 3SM BR SCT002=



000
FTUS42 KRAH 011547 AAB
TAFRWI
TAF AMD
KRWI 011547Z 0116/0212 VRB03KT P6SM BKN015
      TEMPO 0116/0118 VRB03KT SCT025
     FM011800 VRB03KT P6SM SCT025
     FM020800 00000KT 2SM BR SCT002=



000
FTUS42 KRAH 011547 AAB
TAFRWI
TAF AMD
KRWI 011547Z 0116/0212 VRB03KT P6SM BKN015
      TEMPO 0116/0118 VRB03KT SCT025
     FM011800 VRB03KT P6SM SCT025
     FM020800 00000KT 2SM BR SCT002=



000
FTUS42 KRAH 011546 AAC
TAFRDU
TAF AMD
KRDU 011546Z 0116/0212 00000KT P6SM SCT010 BKN025
      TEMPO 0116/0118 VRB03KT SCT025
     FM011800 VRB03KT P6SM SCT025
     FM020800 00000KT 4SM BR SCT002=



000
FTUS42 KRAH 011546 AAC
TAFRDU
TAF AMD
KRDU 011546Z 0116/0212 00000KT P6SM SCT010 BKN025
      TEMPO 0116/0118 VRB03KT SCT025
     FM011800 VRB03KT P6SM SCT025
     FM020800 00000KT 4SM BR SCT002=



000
FTUS42 KRAH 011449 AAB
TAFRDU
TAF AMD
KRDU 011449Z 0115/0212 VRB05KT P6SM SCT008
      TEMPO 0115/0117 BKN008
     FM011700 VRB03KT P6SM SCT030
     FM020800 00000KT 4SM BR SCT002=



000
FTUS42 KRAH 011449 AAB
TAFRDU
TAF AMD
KRDU 011449Z 0115/0212 VRB05KT P6SM SCT008
      TEMPO 0115/0117 BKN008
     FM011700 VRB03KT P6SM SCT030
     FM020800 00000KT 4SM BR SCT002=



000
FTUS42 KRAH 011447 AAB
TAFGSO
TAF AMD
KGSO 011447Z 0115/0212 02004KT 1/2SM -DZ FG OVC002
      TEMPO 0115/0117 VRB03KT 6SM BR BKN008
     FM011700 VRB03KT P6SM SCT025
     FM020800 00000KT 3SM BR SCT002=



000
FTUS42 KRAH 011447 AAB
TAFINT
TAF AMD
KINT 011447Z 0115/0212 02005KT 2SM BR OVC002
      TEMPO 0115/0117 VRB03KT 6SM BR BKN008
     FM011700 VRB03KT P6SM SCT025
     FM020800 00000KT 3SM BR SCT002=



000
FTUS42 KRAH 011447 AAB
TAFINT
TAF AMD
KINT 011447Z 0115/0212 02005KT 2SM BR OVC002
      TEMPO 0115/0117 VRB03KT 6SM BR BKN008
     FM011700 VRB03KT P6SM SCT025
     FM020800 00000KT 3SM BR SCT002=



000
FTUS42 KRAH 011346 AAA
TAFFAY
TAF AMD
KFAY 011346Z 0114/0212 00000KT 3SM BR BKN002
      TEMPO 0114/0115 6SM BR SCT005
     FM011500 VRB05KT P6SM SCT035
     FM020800 00000KT 4SM BR SCT002 SCT030=



000
FTUS42 KRAH 011346 AAA
TAFFAY
TAF AMD
KFAY 011346Z 0114/0212 00000KT 3SM BR BKN002
      TEMPO 0114/0115 6SM BR SCT005
     FM011500 VRB05KT P6SM SCT035
     FM020800 00000KT 4SM BR SCT002 SCT030=



000
FTUS42 KRAH 011346 AAA
TAFRWI
TAF AMD
KRWI 011346Z 0114/0212 00000KT 3SM BR BKN002
      TEMPO 0114/0115 6SM BR SCT005
     FM011500 VRB05KT P6SM SCT035
     FM020800 00000KT 4SM BR SCT002 SCT030=



000
FTUS42 KRAH 011346 AAA
TAFRWI
TAF AMD
KRWI 011346Z 0114/0212 00000KT 3SM BR BKN002
      TEMPO 0114/0115 6SM BR SCT005
     FM011500 VRB05KT P6SM SCT035
     FM020800 00000KT 4SM BR SCT002 SCT030=



000
FTUS42 KRAH 011345 AAA
TAFRDU
TAF AMD
KRDU 011345Z 0114/0212 VRB05KT P6SM SCT035
     FM020800 00000KT 4SM BR SCT002 SCT030=



000
FTUS42 KRAH 011344 AAA
TAFINT
TAF AMD
KINT 011344Z 0114/0212 VRB03KT 1/2SM FG VV002
      TEMPO 0114/0115 2SM BR SCT004
     FM011500 VRB04KT P6SM SCT050 BKN250
     FM020800 00000KT 4SM BR SCT002 SCT030=



000
FTUS42 KRAH 011344 AAA
TAFINT
TAF AMD
KINT 011344Z 0114/0212 VRB03KT 1/2SM FG VV002
      TEMPO 0114/0115 2SM BR SCT004
     FM011500 VRB04KT P6SM SCT050 BKN250
     FM020800 00000KT 4SM BR SCT002 SCT030=



000
FTUS42 KRAH 011344 AAA
TAFGSO
TAF AMD
KGSO 011344Z 0114/0212 VRB03KT 1/4SM FG VV002
      TEMPO 0114/0115 2SM BR SCT004
     FM011500 VRB04KT P6SM SCT050
     FM020800 00000KT 4SM BR SCT035=



000
FTUS42 KRAH 011344 AAA
TAFGSO
TAF AMD
KGSO 011344Z 0114/0212 VRB03KT 1/4SM FG VV002
      TEMPO 0114/0115 2SM BR SCT004
     FM011500 VRB04KT P6SM SCT050
     FM020800 00000KT 4SM BR SCT035=



000
FTUS42 KRAH 011122
TAFFAY
TAF
KFAY 011122Z 0112/0212 03004KT 1/2SM FG VV002
      TEMPO 0112/0114 2SM BR SCT002
     FM011400 VRB03KT 5SM BR SCT006
     FM011500 VRB04KT P6SM SCT050 BKN250
     FM020800 00000KT 4SM BR SCT002 SCT030=



000
FTUS42 KRAH 011122
TAFGSO
TAF
KGSO 011122Z 0112/0212 VRB03KT 1/4SM FG VV001
      TEMPO 0112/0114 2SM BR SCT002
     FM011400 VRB03KT 5SM BR SCT006
     FM011500 VRB04KT P6SM SCT050 BKN250
     FM020800 00000KT 4SM BR SCT002 SCT030=



000
FTUS42 KRAH 011122
TAFRDU
TAF
KRDU 011122Z 0112/0212 00000KT 5SM BCFG BR FEW050 SCT250
      TEMPO 0112/0114 2SM BR BKN002
     FM011400 VRB03KT 5SM BR SCT006
     FM011500 VRB04KT P6SM SCT050 BKN250
     FM020800 00000KT 4SM BR SCT002 SCT030=



000
FTUS42 KRAH 011122
TAFRWI
TAF
KRWI 011122Z 0112/0212 04003KT 1/4SM FG OVC001
      TEMPO 0112/0114 2SM BR SCT002
     FM011400 VRB03KT 5SM BR SCT006
     FM011500 VRB04KT P6SM SCT050 BKN250
     FM020800 00000KT 4SM BR SCT002 SCT030=



000
FTUS42 KRAH 011122
TAFINT
TAF
KINT 011122Z 0112/0212 VRB03KT 1/4SM FG VV001
      TEMPO 0112/0114 2SM BR SCT002
     FM011400 VRB03KT 5SM BR SCT006
     FM011500 VRB04KT P6SM SCT050 BKN250
     FM020800 00000KT 4SM BR SCT002 SCT030=



000
FTUS42 KRAH 011122
TAFFAY
TAF
KFAY 011122Z 0112/0212 03004KT 1/2SM FG VV002
      TEMPO 0112/0114 2SM BR SCT002
     FM011400 VRB03KT 5SM BR SCT006
     FM011500 VRB04KT P6SM SCT050 BKN250
     FM020800 00000KT 4SM BR SCT002 SCT030=



000
FTUS42 KRAH 011122
TAFGSO
TAF
KGSO 011122Z 0112/0212 VRB03KT 1/4SM FG VV001
      TEMPO 0112/0114 2SM BR SCT002
     FM011400 VRB03KT 5SM BR SCT006
     FM011500 VRB04KT P6SM SCT050 BKN250
     FM020800 00000KT 4SM BR SCT002 SCT030=



000
FTUS42 KRAH 011122
TAFRWI
TAF
KRWI 011122Z 0112/0212 04003KT 1/4SM FG OVC001
      TEMPO 0112/0114 2SM BR SCT002
     FM011400 VRB03KT 5SM BR SCT006
     FM011500 VRB04KT P6SM SCT050 BKN250
     FM020800 00000KT 4SM BR SCT002 SCT030=



000
FTUS42 KRAH 011122
TAFINT
TAF
KINT 011122Z 0112/0212 VRB03KT 1/4SM FG VV001
      TEMPO 0112/0114 2SM BR SCT002
     FM011400 VRB03KT 5SM BR SCT006
     FM011500 VRB04KT P6SM SCT050 BKN250
     FM020800 00000KT 4SM BR SCT002 SCT030=



000
FTUS42 KRAH 011122
TAFRDU
TAF
KRDU 011122Z 0112/0212 00000KT 5SM BCFG BR FEW050 SCT250
      TEMPO 0112/0114 2SM BR BKN002
     FM011400 VRB03KT 5SM BR SCT006
     FM011500 VRB04KT P6SM SCT050 BKN250
     FM020800 00000KT 4SM BR SCT002 SCT030=



000
FTUS42 KRAH 011054 AAD
TAFGSO
TAF AMD
KGSO 011054Z 0111/0206 03003KT 1/4SM FG VV002
      TEMPO 0111/0113 2SM BR SCT002
     FM011300 VRB04KT P6SM FEW060 SCT250=



000
FTUS42 KRAH 011054 AAD
TAFGSO
TAF AMD
KGSO 011054Z 0111/0206 03003KT 1/4SM FG VV002
      TEMPO 0111/0113 2SM BR SCT002
     FM011300 VRB04KT P6SM FEW060 SCT250=



000
FTUS42 KRAH 011054 AAB
TAFINT
TAF AMD
KINT 011054Z 0111/0206 03003KT 1/4SM FG VV001
      TEMPO 0111/0113 2SM BR SCT002
     FM011300 VRB04KT P6SM FEW060 SCT250=



000
FTUS42 KRAH 011054 AAB
TAFINT
TAF AMD
KINT 011054Z 0111/0206 03003KT 1/4SM FG VV001
      TEMPO 0111/0113 2SM BR SCT002
     FM011300 VRB04KT P6SM FEW060 SCT250=



000
FTUS42 KRAH 010955 AAC
TAFGSO
TAF AMD
KGSO 010955Z 0110/0206 04005KT 1/2SM FG BKN001
      TEMPO 0110/0113 2SM BR SCT002
     FM011300 VRB04KT P6SM FEW060 SCT250=



000
FTUS42 KRAH 010955 AAC
TAFGSO
TAF AMD
KGSO 010955Z 0110/0206 04005KT 1/2SM FG BKN001
      TEMPO 0110/0113 2SM BR SCT002
     FM011300 VRB04KT P6SM FEW060 SCT250=



000
FTUS42 KRAH 010912 AAC
TAFRDU
TAF AMD
KRDU 010912Z 0109/0206 00000KT 4SM BCFG BR FEW002
      TEMPO 0109/0112 2SM BR BKN002
     FM011300 VRB02KT 5SM BR SCT003
     FM011500 VRB04KT P6SM FEW008 SCT250
     FM011800 VRB03KT P6SM BKN040=



000
FTUS42 KRAH 010912 AAC
TAFRDU
TAF AMD
KRDU 010912Z 0109/0206 00000KT 4SM BCFG BR FEW002
      TEMPO 0109/0112 2SM BR BKN002
     FM011300 VRB02KT 5SM BR SCT003
     FM011500 VRB04KT P6SM FEW008 SCT250
     FM011800 VRB03KT P6SM BKN040=



000
FTUS42 KRAH 010911 AAB
TAFGSO
TAF AMD
KGSO 010911Z 0109/0206 00000KT 6SM BR SKC
      TEMPO 0109/0113 3SM BR SCT002
     FM011300 VRB04KT P6SM FEW060 SCT250=



000
FTUS42 KRAH 010911 AAB
TAFGSO
TAF AMD
KGSO 010911Z 0109/0206 00000KT 6SM BR SKC
      TEMPO 0109/0113 3SM BR SCT002
     FM011300 VRB04KT P6SM FEW060 SCT250=



000
FTUS42 KRAH 010811 AAB
TAFRDU
TAF AMD
KRDU 010811Z 0108/0206 00000KT 2SM BCFG BR FEW001
      TEMPO 0108/0112 1/4SM FG OVC001
     FM011300 VRB02KT 2SM BR BKN003
     FM011500 VRB04KT P6SM FEW008 SCT250
     FM011800 VRB03KT P6SM BKN040=



000
FTUS42 KRAH 010811 AAB
TAFRDU
TAF AMD
KRDU 010811Z 0108/0206 00000KT 2SM BCFG BR FEW001
      TEMPO 0108/0112 1/4SM FG OVC001
     FM011300 VRB02KT 2SM BR BKN003
     FM011500 VRB04KT P6SM FEW008 SCT250
     FM011800 VRB03KT P6SM BKN040=



000
FTUS42 KRAH 010701 AAA
TAFINT
TAF AMD
KINT 010701Z 0107/0206 00000KT 5SM BR SKC
      TEMPO 0109/0113 2SM BR SCT002
     FM011300 VRB04KT P6SM FEW060 SCT250=



000
FTUS42 KRAH 010701 AAA
TAFINT
TAF AMD
KINT 010701Z 0107/0206 00000KT 5SM BR SKC
      TEMPO 0109/0113 2SM BR SCT002
     FM011300 VRB04KT P6SM FEW060 SCT250=



000
FTUS42 KRAH 010656 AAA
TAFRDU
TAF AMD
KRDU 010656Z 0107/0206 00000KT 3SM BCFG BR FEW001
      TEMPO 0107/0108 3SM BR BKN004
     FM010800 00000KT 1SM BR BKN002
      TEMPO 0108/0112 1/4SM FG OVC001
     FM011300 VRB02KT 2SM BR BKN003
     FM011500 VRB04KT P6SM FEW008 SCT250
     FM011800 VRB03KT P6SM BKN040=



000
FTUS42 KRAH 010656 AAA
TAFRDU
TAF AMD
KRDU 010656Z 0107/0206 00000KT 3SM BCFG BR FEW001
      TEMPO 0107/0108 3SM BR BKN004
     FM010800 00000KT 1SM BR BKN002
      TEMPO 0108/0112 1/4SM FG OVC001
     FM011300 VRB02KT 2SM BR BKN003
     FM011500 VRB04KT P6SM FEW008 SCT250
     FM011800 VRB03KT P6SM BKN040=



000
FTUS42 KRAH 010656 AAA
TAFFAY
TAF AMD
KFAY 010656Z 0107/0206 VRB04KT 1/4SM FG OVC003
      TEMPO 0107/0111 1/2SM FG OVC001
     FM011200 00000KT 1SM BR BKN002
     FM011300 VRB02KT 2SM BR BKN003
     FM011500 VRB04KT P6SM FEW008 SCT250
     FM011800 VRB03KT P6SM BKN040=



000
FTUS42 KRAH 010656 AAA
TAFFAY
TAF AMD
KFAY 010656Z 0107/0206 VRB04KT 1/4SM FG OVC003
      TEMPO 0107/0111 1/2SM FG OVC001
     FM011200 00000KT 1SM BR BKN002
     FM011300 VRB02KT 2SM BR BKN003
     FM011500 VRB04KT P6SM FEW008 SCT250
     FM011800 VRB03KT P6SM BKN040=



000
FTUS42 KRAH 010656 AAA
TAFGSO
TAF AMD
KGSO 010656Z 0107/0206 VRB04KT 5SM BR SKC
      TEMPO 0109/0113 2SM BR SCT002
     FM011300 VRB04KT P6SM FEW060 SCT250=



000
FTUS42 KRAH 010656 AAA
TAFGSO
TAF AMD
KGSO 010656Z 0107/0206 VRB04KT 5SM BR SKC
      TEMPO 0109/0113 2SM BR SCT002
     FM011300 VRB04KT P6SM FEW060 SCT250=



000
FTUS42 KRAH 010531
TAFINT
TAF
KINT 010531Z 0106/0206 00000KT 6SM BR SKC
      TEMPO 0109/0113 2SM BR SCT002
     FM011300 VRB04KT P6SM FEW060 SCT250=



000
FTUS42 KRAH 010531
TAFFAY
TAF
KFAY 010531Z 0106/0206 36003KT 6SM BR SCT004
      TEMPO 0106/0108 3SM BR BKN004
     FM010800 00000KT 1SM BR BKN002
      TEMPO 0108/0112 1/4SM FG OVC001
     FM011300 VRB02KT 2SM BR BKN003
     FM011500 VRB04KT P6SM FEW008 SCT250
     FM011800 VRB03KT P6SM BKN040=



000
FTUS42 KRAH 010531
TAFRDU
TAF
KRDU 010531Z 0106/0206 00000KT 6SM BCFG BR FEW001
      TEMPO 0106/0108 3SM BR BKN004
     FM010800 00000KT 1SM BR BKN002
      TEMPO 0108/0112 1/4SM FG OVC001
     FM011300 VRB02KT 2SM BR BKN003
     FM011500 VRB04KT P6SM FEW008 SCT250
     FM011800 VRB03KT P6SM BKN040=



000
FTUS42 KRAH 010531
TAFGSO
TAF
KGSO 010531Z 0106/0206 VRB04KT 6SM BR SKC
      TEMPO 0109/0113 2SM BR SCT002
     FM011300 VRB04KT P6SM FEW060 SCT250=



000
FTUS42 KRAH 010531
TAFRWI
TAF
KRWI 010531Z 0106/0206 00000KT 1/2SM FG OVC002
      TEMPO 0109/0113 00000KT 1/4SM FG OVC001
     FM011300 VRB02KT 2SM BR BKN003
     FM011500 VRB04KT P6SM FEW008 SCT250
     FM011800 VRB03KT P6SM BKN040=



000
FTUS42 KRAH 010531
TAFINT
TAF
KINT 010531Z 0106/0206 00000KT 6SM BR SKC
      TEMPO 0109/0113 2SM BR SCT002
     FM011300 VRB04KT P6SM FEW060 SCT250=



000
FTUS42 KRAH 010531
TAFFAY
TAF
KFAY 010531Z 0106/0206 36003KT 6SM BR SCT004
      TEMPO 0106/0108 3SM BR BKN004
     FM010800 00000KT 1SM BR BKN002
      TEMPO 0108/0112 1/4SM FG OVC001
     FM011300 VRB02KT 2SM BR BKN003
     FM011500 VRB04KT P6SM FEW008 SCT250
     FM011800 VRB03KT P6SM BKN040=



000
FTUS42 KRAH 010531
TAFRWI
TAF
KRWI 010531Z 0106/0206 00000KT 1/2SM FG OVC002
      TEMPO 0109/0113 00000KT 1/4SM FG OVC001
     FM011300 VRB02KT 2SM BR BKN003
     FM011500 VRB04KT P6SM FEW008 SCT250
     FM011800 VRB03KT P6SM BKN040=



000
FTUS42 KRAH 010531
TAFRDU
TAF
KRDU 010531Z 0106/0206 00000KT 6SM BCFG BR FEW001
      TEMPO 0106/0108 3SM BR BKN004
     FM010800 00000KT 1SM BR BKN002
      TEMPO 0108/0112 1/4SM FG OVC001
     FM011300 VRB02KT 2SM BR BKN003
     FM011500 VRB04KT P6SM FEW008 SCT250
     FM011800 VRB03KT P6SM BKN040=



000
FTUS42 KRAH 010531
TAFGSO
TAF
KGSO 010531Z 0106/0206 VRB04KT 6SM BR SKC
      TEMPO 0109/0113 2SM BR SCT002
     FM011300 VRB04KT P6SM FEW060 SCT250=



000
FTUS42 KRAH 010341 AAB
TAFRDU
TAF AMD
KRDU 010341Z 0104/0124 00000KT P6SM BCFG SKC
      TEMPO 0104/0106 5SM BR
     FM010600 VRB02KT 1SM BR SCT002
      TEMPO 0109/0113 00000KT 1/4SM FG VV002
     FM011400 14004KT P6SM FEW030 SCT250=



000
FTUS42 KRAH 010341 AAB
TAFRDU
TAF AMD
KRDU 010341Z 0104/0124 00000KT P6SM BCFG SKC
      TEMPO 0104/0106 5SM BR
     FM010600 VRB02KT 1SM BR SCT002
      TEMPO 0109/0113 00000KT 1/4SM FG VV002
     FM011400 14004KT P6SM FEW030 SCT250=



000
FTUS42 KRAH 010151 AAA
TAFGSO
TAF AMD
KGSO 010151Z 0102/0124 VRB03KT P6SM SKC
     FM010600 VRB02KT 3SM BR SKC
      TEMPO 0109/0113 00000KT 1SM BR SCT002
     FM011300 VRB04KT P6SM FEW060 SCT250=



000
FTUS42 KRAH 010151 AAA
TAFGSO
TAF AMD
KGSO 010151Z 0102/0124 VRB03KT P6SM SKC
     FM010600 VRB02KT 3SM BR SKC
      TEMPO 0109/0113 00000KT 1SM BR SCT002
     FM011300 VRB04KT P6SM FEW060 SCT250=



000
FTUS42 KRAH 010150 AAA
TAFRDU
TAF AMD
KRDU 010150Z 0102/0124 VRB03KT P6SM SKC
     FM010300 VRB02KT 4SM BR SCT002
      TEMPO 0103/0106 1SM BR
     FM010600 VRB02KT 1SM BR SCT002
      TEMPO 0109/0113 00000KT 1/4SM FG VV002
     FM011400 14004KT P6SM FEW030 SCT250=



000
FTUS42 KRAH 010150 AAA
TAFRDU
TAF AMD
KRDU 010150Z 0102/0124 VRB03KT P6SM SKC
     FM010300 VRB02KT 4SM BR SCT002
      TEMPO 0103/0106 1SM BR
     FM010600 VRB02KT 1SM BR SCT002
      TEMPO 0109/0113 00000KT 1/4SM FG VV002
     FM011400 14004KT P6SM FEW030 SCT250=



000
FTUS42 KRAH 010149 AAB
TAFRWI
TAF AMD
KRWI 010149Z 0102/0124 VRB03KT 2SM BR SCT002
      TEMPO 0102/0106 1/2SM FG VV002
     FM010600 VRB02KT 1SM BR SCT002
      TEMPO 0109/0113 00000KT 1/4SM FG VV002
     FM011400 14004KT P6SM FEW025 SCT250=



000
FTUS42 KRAH 010149 AAB
TAFRWI
TAF AMD
KRWI 010149Z 0102/0124 VRB03KT 2SM BR SCT002
      TEMPO 0102/0106 1/2SM FG VV002
     FM010600 VRB02KT 1SM BR SCT002
      TEMPO 0109/0113 00000KT 1/4SM FG VV002
     FM011400 14004KT P6SM FEW025 SCT250=



000
FTUS42 KRAH 010036 AAA
TAFRWI
TAF AMD
KRWI 010036Z 0101/0124 VRB03KT P6SM SKC
      TEMPO 0101/0103 2SM BR
     FM010300 VRB02KT 4SM BR SCT002
     FM010600 VRB02KT 1SM BR SCT002
      TEMPO 0109/0113 00000KT 1/4SM FG VV002
     FM011400 14004KT P6SM FEW025 SCT250=



000
FTUS42 KRAH 010036 AAA
TAFRWI
TAF AMD
KRWI 010036Z 0101/0124 VRB03KT P6SM SKC
      TEMPO 0101/0103 2SM BR
     FM010300 VRB02KT 4SM BR SCT002
     FM010600 VRB02KT 1SM BR SCT002
      TEMPO 0109/0113 00000KT 1/4SM FG VV002
     FM011400 14004KT P6SM FEW025 SCT250=



000
FTUS42 KRAH 302325
TAFRWI
TAF
KRWI 302325Z 0100/0124 VRB03KT P6SM SKC
     FM010300 VRB02KT 4SM BR SCT002
     FM010600 VRB02KT 1SM BR SCT002
      TEMPO 0109/0113 00000KT 1/4SM FG VV002
     FM011400 14004KT P6SM FEW025 SCT250=



000
FTUS42 KRAH 302325
TAFINT
TAF
KINT 302325Z 0100/0124 VRB03KT P6SM SKC
     FM010600 VRB02KT 3SM BR SKC
      TEMPO 0109/0113 00000KT 1SM BR SCT002
     FM011300 VRB04KT P6SM FEW060 SCT250=



000
FTUS42 KRAH 302325
TAFFAY
TAF
KFAY 302325Z 0100/0124 VRB03KT P6SM SKC
     FM010300 VRB02KT 4SM BR SCT002
     FM010600 VRB02KT 1SM BR SCT002
      TEMPO 0109/0113 00000KT 1/4SM FG VV002
     FM011400 14004KT P6SM FEW025 SCT250=



000
FTUS42 KRAH 302325
TAFRDU
TAF
KRDU 302325Z 0100/0124 VRB03KT P6SM SKC
     FM010300 VRB02KT 4SM BR SCT002
     FM010600 VRB02KT 1SM BR SCT002
      TEMPO 0109/0113 00000KT 1/4SM FG VV002
     FM011400 14004KT P6SM FEW030 SCT250=



000
FTUS42 KRAH 302325
TAFRDU
TAF
KRDU 302325Z 0100/0124 VRB03KT P6SM SKC
     FM010300 VRB02KT 4SM BR SCT002
     FM010600 VRB02KT 1SM BR SCT002
      TEMPO 0109/0113 00000KT 1/4SM FG VV002
     FM011400 14004KT P6SM FEW030 SCT250=



000
FTUS42 KRAH 302325
TAFINT
TAF
KINT 302325Z 0100/0124 VRB03KT P6SM SKC
     FM010600 VRB02KT 3SM BR SKC
      TEMPO 0109/0113 00000KT 1SM BR SCT002
     FM011300 VRB04KT P6SM FEW060 SCT250=



000
FTUS42 KRAH 302325
TAFFAY
TAF
KFAY 302325Z 0100/0124 VRB03KT P6SM SKC
     FM010300 VRB02KT 4SM BR SCT002
     FM010600 VRB02KT 1SM BR SCT002
      TEMPO 0109/0113 00000KT 1/4SM FG VV002
     FM011400 14004KT P6SM FEW025 SCT250=



000
FTUS42 KRAH 302325
TAFRWI
TAF
KRWI 302325Z 0100/0124 VRB03KT P6SM SKC
     FM010300 VRB02KT 4SM BR SCT002
     FM010600 VRB02KT 1SM BR SCT002
      TEMPO 0109/0113 00000KT 1/4SM FG VV002
     FM011400 14004KT P6SM FEW025 SCT250=



000
FTUS42 KRAH 302325
TAFGSO
TAF
KGSO 302325Z 0100/0124 VRB03KT P6SM SKC
     FM010600 VRB02KT 3SM BR SKC
      TEMPO 0109/0113 00000KT 1SM BR SCT002
     FM011300 VRB04KT P6SM FEW060 SCT250=



000
FTUS42 KRAH 302325
TAFGSO
TAF
KGSO 302325Z 0100/0124 VRB03KT P6SM SKC
     FM010600 VRB02KT 3SM BR SKC
      TEMPO 0109/0113 00000KT 1SM BR SCT002
     FM011300 VRB04KT P6SM FEW060 SCT250=



000
FTUS42 KRAH 301832 AAA
TAFRDU
TAF AMD
KRDU 301832Z 3019/0118 VRB03KT P6SM BKN012
      TEMPO 3019/3020 SCT015
     FM302000 VRB03KT P6SM SKC
      TEMPO 0108/0112 3SM BR SCT002=



000
FTUS42 KRAH 301832 AAA
TAFRDU
TAF AMD
KRDU 301832Z 3019/0118 VRB03KT P6SM BKN012
      TEMPO 3019/3020 SCT015
     FM302000 VRB03KT P6SM SKC
      TEMPO 0108/0112 3SM BR SCT002=



000
FTUS42 KRAH 301745 CCB
TAFRWI
TAF COR
KRWI 301745Z 3018/0118 34003KT P6SM BKN012
      TEMPO 3018/3019 SCT018
     FM301900 VRB03KT P6SM SKC
      TEMPO 0108/0112 3SM BR SCT002=



000
FTUS42 KRAH 301745 CCB
TAFRWI
TAF COR
KRWI 301745Z 3018/0118 34003KT P6SM BKN012
      TEMPO 3018/3019 SCT018
     FM301900 VRB03KT P6SM SKC
      TEMPO 0108/0112 3SM BR SCT002=



000
FTUS42 KRAH 301744 CCC
TAFRDU
TAF COR
KRDU 301744Z 3018/0118 VRB03KT P6SM BKN012
      TEMPO 3018/3019 SCT015
     FM301900 VRB03KT P6SM SKC
      TEMPO 0108/0112 3SM BR SCT002=



000
FTUS42 KRAH 301744 CCC
TAFRDU
TAF COR
KRDU 301744Z 3018/0118 VRB03KT P6SM BKN012
      TEMPO 3018/3019 SCT015
     FM301900 VRB03KT P6SM SKC
      TEMPO 0108/0112 3SM BR SCT002=



000
FTUS42 KRAH 301733 CCB
TAFRDU
TAF COR
KRDU 301733Z 3018/0118 VRB03KT P6SM OVC008
      TEMPO 3018/3019 SCT012
     FM301900 VRB03KT P6SM SKC
      TEMPO 0108/0112 3SM BR SCT002=



000
FTUS42 KRAH 301733 CCB
TAFRDU
TAF COR
KRDU 301733Z 3018/0118 VRB03KT P6SM OVC008
      TEMPO 3018/3019 SCT012
     FM301900 VRB03KT P6SM SKC
      TEMPO 0108/0112 3SM BR SCT002=



000
FTUS42 KRAH 301721 CCA
TAFRWI
TAF COR
KRWI 301721Z 3018/0118 34003KT P6SM OVC011
      TEMPO 3018/3019 SCT015
     FM301900 VRB03KT P6SM SKC
      TEMPO 0108/0112 3SM BR SCT002=



000
FTUS42 KRAH 301721 CCA
TAFRWI
TAF COR
KRWI 301721Z 3018/0118 34003KT P6SM OVC011
      TEMPO 3018/3019 SCT015
     FM301900 VRB03KT P6SM SKC
      TEMPO 0108/0112 3SM BR SCT002=



000
FTUS42 KRAH 301721 CCA
TAFRDU
TAF COR
KRDU 301721Z 3018/0118 VRB03KT P6SM OVC008
      TEMPO 3018/3019 SCT008
     FM301900 VRB03KT P6SM SKC
      TEMPO 0108/0112 3SM BR SCT002=



000
FTUS42 KRAH 301721 CCA
TAFRDU
TAF COR
KRDU 301721Z 3018/0118 VRB03KT P6SM OVC008
      TEMPO 3018/3019 SCT008
     FM301900 VRB03KT P6SM SKC
      TEMPO 0108/0112 3SM BR SCT002=



000
FTUS42 KRAH 301720
TAFINT
TAF
KINT 301720Z 3018/0118 VRB03KT P6SM SKC
      TEMPO 0108/0112 5SM BR=



000
FTUS42 KRAH 301720
TAFGSO
TAF
KGSO 301720Z 3018/0118 VRB03KT P6SM SKC
      TEMPO 0108/0112 5SM BR=



000
FTUS42 KRAH 301720
TAFRDU
TAF
KRDU 301720Z 3018/0118 VRB03KT P6SM SKC
      TEMPO 0108/0112 3SM BR SCT002=



000
FTUS42 KRAH 301720
TAFRDU
TAF
KRDU 301720Z 3018/0118 VRB03KT P6SM SKC
      TEMPO 0108/0112 3SM BR SCT002=



000
FTUS42 KRAH 301720
TAFGSO
TAF
KGSO 301720Z 3018/0118 VRB03KT P6SM SKC
      TEMPO 0108/0112 5SM BR=



000
FTUS42 KRAH 301720
TAFRWI
TAF
KRWI 301720Z 3018/0118 VRB03KT P6SM SKC
      TEMPO 0108/0112 2SM BR SCT002=



000
FTUS42 KRAH 301720
TAFRWI
TAF
KRWI 301720Z 3018/0118 VRB03KT P6SM SKC
      TEMPO 0108/0112 2SM BR SCT002=



000
FTUS42 KRAH 301720
TAFINT
TAF
KINT 301720Z 3018/0118 VRB03KT P6SM SKC
      TEMPO 0108/0112 5SM BR=



000
FTUS42 KRAH 301720
TAFFAY
TAF
KFAY 301720Z 3018/0118 VRB03KT P6SM SKC
      TEMPO 0108/0112 2SM BR SCT002=



000
FTUS42 KRAH 301720
TAFFAY
TAF
KFAY 301720Z 3018/0118 VRB03KT P6SM SKC
      TEMPO 0108/0112 2SM BR SCT002=



000
FTUS42 KRAH 301626 AAB
TAFRWI
TAF AMD
KRWI 301626Z 3016/0112 36005KT P6SM OVC006
      TEMPO 3016/3018 SCT008
     FM301800 VRB03KT P6SM SKC
     FM010700 00000KT 3SM BR SCT004=



000
FTUS42 KRAH 301626 AAB
TAFRWI
TAF AMD
KRWI 301626Z 3016/0112 36005KT P6SM OVC006
      TEMPO 3016/3018 SCT008
     FM301800 VRB03KT P6SM SKC
     FM010700 00000KT 3SM BR SCT004=



000
FTUS42 KRAH 301625 AAC
TAFGSO
TAF AMD
KGSO 301625Z 3016/0112 32003KT P6SM SKC
     FM010700 00000KT 3SM BR SCT004=



000
FTUS42 KRAH 301625 AAC
TAFGSO
TAF AMD
KGSO 301625Z 3016/0112 32003KT P6SM SKC
     FM010700 00000KT 3SM BR SCT004=



000
FTUS42 KRAH 301625 AAB
TAFINT
TAF AMD
KINT 301625Z 3016/0112 32003KT P6SM SKC
     FM010700 00000KT 3SM BR SCT004=



000
FTUS42 KRAH 301625 AAB
TAFINT
TAF AMD
KINT 301625Z 3016/0112 32003KT P6SM SKC
     FM010700 00000KT 3SM BR SCT004=



000
FTUS42 KRAH 301525 AAB
TAFFAY
TAF AMD
KFAY 301525Z 3015/0112 02005KT P6SM SKC
     FM010700 00000KT 3SM BR SCT004=



000
FTUS42 KRAH 301525 AAB
TAFFAY
TAF AMD
KFAY 301525Z 3015/0112 02005KT P6SM SKC
     FM010700 00000KT 3SM BR SCT004=



000
FTUS42 KRAH 301502 AAB
TAFRDU
TAF AMD
KRDU 301502Z 3015/0112 32003KT 4SM BR OVC006
      TEMPO 3015/3017 P6SM NSW BKN012
     FM301700 VRB03KT P6SM SKC
     FM010700 00000KT 3SM BR SCT004=



000
FTUS42 KRAH 301502 AAB
TAFRDU
TAF AMD
KRDU 301502Z 3015/0112 32003KT 4SM BR OVC006
      TEMPO 3015/3017 P6SM NSW BKN012
     FM301700 VRB03KT P6SM SKC
     FM010700 00000KT 3SM BR SCT004=



000
FTUS42 KRAH 301502 AAB
TAFGSO
TAF AMD
KGSO 301502Z 3015/0112 32003KT 4SM BR OVC004
      TEMPO 3015/3017 P6SM NSW BKN008
     FM301700 VRB03KT P6SM SKC
     FM010700 00000KT 3SM BR SCT004=



000
FTUS42 KRAH 301355 AAA
TAFRWI
TAF AMD
KRWI 301355Z 3014/0112 36005KT 3/4SM BR OVC002
      TEMPO 3014/3016 P6SM NSW BKN012
     FM301600 VRB03KT P6SM SCT035
     FM010700 00000KT 3SM BR SCT004=



000
FTUS42 KRAH 301355 AAA
TAFRWI
TAF AMD
KRWI 301355Z 3014/0112 36005KT 3/4SM BR OVC002
      TEMPO 3014/3016 P6SM NSW BKN012
     FM301600 VRB03KT P6SM SCT035
     FM010700 00000KT 3SM BR SCT004=



000
FTUS42 KRAH 301354 AAA
TAFFAY
TAF AMD
KFAY 301354Z 3014/0112 03005KT 2SM BR OVC002
      TEMPO 3014/3016 P6SM NSW BKN012
     FM301600 VRB03KT P6SM SCT035
     FM010700 00000KT 3SM BR SCT004=



000
FTUS42 KRAH 301354 AAA
TAFFAY
TAF AMD
KFAY 301354Z 3014/0112 03005KT 2SM BR OVC002
      TEMPO 3014/3016 P6SM NSW BKN012
     FM301600 VRB03KT P6SM SCT035
     FM010700 00000KT 3SM BR SCT004=



000
FTUS42 KRAH 301314 AAA
TAFRDU
TAF AMD
KRDU 301314Z 3013/0112 35005KT 2SM BR OVC005
      TEMPO 3013/3015 P6SM NSW BKN012
     FM301500 VRB03KT P6SM SKC
     FM010700 00000KT 3SM BR SCT004=



000
FTUS42 KRAH 301313 AAA
TAFGSO
TAF AMD
KGSO 301313Z 3013/0112 32003KT 1SM BR OVC002
      TEMPO 3013/3015 P6SM NSW BKN008
     FM301500 VRB03KT P6SM SKC
     FM010700 00000KT 3SM BR SCT004=



000
FTUS42 KRAH 301313 AAA
TAFGSO
TAF AMD
KGSO 301313Z 3013/0112 32003KT 1SM BR OVC002
      TEMPO 3013/3015 P6SM NSW BKN008
     FM301500 VRB03KT P6SM SKC
     FM010700 00000KT 3SM BR SCT004=



000
FTUS42 KRAH 301312 AAA
TAFINT
TAF AMD
KINT 301312Z 3013/0112 32003KT 5SM BR OVC002
      TEMPO 3013/3015 P6SM NSW BKN008
     FM301500 VRB03KT P6SM SCT008
     FM301800 VRB03KT P6SM SCT035
     FM010700 00000KT 3SM BR SCT004=



000
FTUS42 KRAH 301312 AAA
TAFINT
TAF AMD
KINT 301312Z 3013/0112 32003KT 5SM BR OVC002
      TEMPO 3013/3015 P6SM NSW BKN008
     FM301500 VRB03KT P6SM SCT008
     FM301800 VRB03KT P6SM SCT035
     FM010700 00000KT 3SM BR SCT004=



000
FTUS42 KRAH 301131
TAFGSO
TAF
KGSO 301131Z 3012/0112 VRB03KT 1/4SM FG VV002
      TEMPO 3012/3014 1SM BR OVC005
     FM301400 VRB03KT P6SM SCT008
     FM301800 VRB03KT P6SM SCT035
     FM010700 00000KT 3SM BR SCT004=



000
FTUS42 KRAH 301131
TAFINT
TAF
KINT 301131Z 3012/0112 VRB03KT 1/4SM FG OVC002
      TEMPO 3012/3014 1SM BR OVC005
     FM301400 VRB03KT P6SM SCT008
     FM301800 VRB03KT P6SM SCT035
     FM010700 00000KT 3SM BR SCT004=



000
FTUS42 KRAH 301131
TAFRWI
TAF
KRWI 301131Z 3012/0112 00000KT 1/4SM FG OVC002
      TEMPO 3012/3014 1SM BR OVC005
     FM301400 00000KT 2SM BR BKN005
     FM301500 VRB02KT P6SM SCT008
     FM301800 VRB03KT P6SM SCT035
     FM010700 00000KT 3SM BR SCT004=



000
FTUS42 KRAH 301131
TAFRDU
TAF
KRDU 301131Z 3012/0112 00000KT 1/4SM FG OVC001
      TEMPO 3012/3014 1SM BR OVC005
     FM301400 00000KT 2SM BR BKN005
     FM301500 VRB02KT P6SM SCT008
     FM301800 VRB03KT P6SM SCT035
     FM010700 00000KT 3SM BR SCT004=



000
FTUS42 KRAH 301131
TAFRDU
TAF
KRDU 301131Z 3012/0112 00000KT 1/4SM FG OVC001
      TEMPO 3012/3014 1SM BR OVC005
     FM301400 00000KT 2SM BR BKN005
     FM301500 VRB02KT P6SM SCT008
     FM301800 VRB03KT P6SM SCT035
     FM010700 00000KT 3SM BR SCT004=



000
FTUS42 KRAH 301131
TAFFAY
TAF
KFAY 301131Z 3012/0112 00000KT 1/4SM FG OVC002
      TEMPO 3012/3014 1SM BR OVC005
     FM301400 00000KT 2SM BR BKN005
     FM301500 VRB02KT P6SM SCT008
     FM301800 VRB03KT P6SM SCT035
     FM010700 00000KT 3SM BR SCT004=



000
FTUS42 KRAH 301131
TAFFAY
TAF
KFAY 301131Z 3012/0112 00000KT 1/4SM FG OVC002
      TEMPO 3012/3014 1SM BR OVC005
     FM301400 00000KT 2SM BR BKN005
     FM301500 VRB02KT P6SM SCT008
     FM301800 VRB03KT P6SM SCT035
     FM010700 00000KT 3SM BR SCT004=



000
FTUS42 KRAH 301029 AAA
TAFINT
TAF AMD
KINT 301029Z 3010/0106 VRB03KT 1SM BR OVC005
      TEMPO 3010/3013 1/4SM FG OVC002
     FM301300 VRB02KT P6SM SCT008
     FM301800 VRB03KT P6SM SCT035=



000
FTUS42 KRAH 301029 AAA
TAFINT
TAF AMD
KINT 301029Z 3010/0106 VRB03KT 1SM BR OVC005
      TEMPO 3010/3013 1/4SM FG OVC002
     FM301300 VRB02KT P6SM SCT008
     FM301800 VRB03KT P6SM SCT035=



000
FTUS42 KRAH 301029 AAC
TAFGSO
TAF AMD
KGSO 301029Z 3010/0106 21003KT 1SM BR OVC005
      TEMPO 3010/3012 1/4SM FG OVC002
     FM301500 VRB02KT P6SM SCT008
     FM301800 VRB03KT P6SM SCT035=



000
FTUS42 KRAH 301029 AAC
TAFGSO
TAF AMD
KGSO 301029Z 3010/0106 21003KT 1SM BR OVC005
      TEMPO 3010/3012 1/4SM FG OVC002
     FM301500 VRB02KT P6SM SCT008
     FM301800 VRB03KT P6SM SCT035=



000
FTUS42 KRAH 300908 AAB
TAFGSO
TAF AMD
KGSO 300908Z 3009/0106 26003KT 1SM BR SCT002 OVC009
      TEMPO 3009/3012 1/4SM FG OVC002
     FM301500 VRB02KT P6SM SCT008
     FM301800 VRB03KT P6SM SCT035=



000
FTUS42 KRAH 300908 AAB
TAFGSO
TAF AMD
KGSO 300908Z 3009/0106 26003KT 1SM BR SCT002 OVC009
      TEMPO 3009/3012 1/4SM FG OVC002
     FM301500 VRB02KT P6SM SCT008
     FM301800 VRB03KT P6SM SCT035=



000
FTUS42 KRAH 300835 AAB
TAFRDU
TAF AMD
KRDU 300835Z 3009/0106 00000KT 1/4SM FG OVC001
      TEMPO 3009/3013 1SM BR OVC005
     FM301300 00000KT 1SM BR OVC005
     FM301500 VRB02KT P6SM SCT008
     FM301800 VRB03KT P6SM SCT035=



000
FTUS42 KRAH 300835 AAB
TAFRDU
TAF AMD
KRDU 300835Z 3009/0106 00000KT 1/4SM FG OVC001
      TEMPO 3009/3013 1SM BR OVC005
     FM301300 00000KT 1SM BR OVC005
     FM301500 VRB02KT P6SM SCT008
     FM301800 VRB03KT P6SM SCT035=



000
FTUS42 KRAH 300835 AAC
TAFFAY
TAF AMD
KFAY 300835Z 3009/0106 00000KT 2SM BR SCT002
      TEMPO 3009/3012 1/2SM FG OVC002
     FM301200 00000KT 2SM BR OVC005
     FM301500 VRB02KT P6SM SCT008
     FM301800 VRB03KT P6SM SCT035=



000
FTUS42 KRAH 300835 AAC
TAFFAY
TAF AMD
KFAY 300835Z 3009/0106 00000KT 2SM BR SCT002
      TEMPO 3009/3012 1/2SM FG OVC002
     FM301200 00000KT 2SM BR OVC005
     FM301500 VRB02KT P6SM SCT008
     FM301800 VRB03KT P6SM SCT035=



000
FTUS42 KRAH 300834 AAA
TAFGSO
TAF AMD
KGSO 300834Z 3009/0106 26003KT 1SM BR SCT002 OVC009
      TEMPO 3009/3012 1/2SM FG OVC002
     FM301500 VRB02KT P6SM SCT008
     FM301800 VRB03KT P6SM SCT035=



000
FTUS42 KRAH 300834 AAA
TAFGSO
TAF AMD
KGSO 300834Z 3009/0106 26003KT 1SM BR SCT002 OVC009
      TEMPO 3009/3012 1/2SM FG OVC002
     FM301500 VRB02KT P6SM SCT008
     FM301800 VRB03KT P6SM SCT035=



000
FTUS42 KRAH 300810 AAB
TAFFAY
TAF AMD
KFAY 300810Z 3008/0106 00000KT 1/2SM FG OVC001
      TEMPO 3008/3012 1SM BR OVC003
     FM301200 00000KT 2SM BR OVC005
     FM301500 VRB02KT P6SM SCT008
     FM301800 VRB03KT P6SM SCT035=



000
FTUS42 KRAH 300810 AAB
TAFFAY
TAF AMD
KFAY 300810Z 3008/0106 00000KT 1/2SM FG OVC001
      TEMPO 3008/3012 1SM BR OVC003
     FM301200 00000KT 2SM BR OVC005
     FM301500 VRB02KT P6SM SCT008
     FM301800 VRB03KT P6SM SCT035=



000
FTUS42 KRAH 300645 AAA
TAFFAY
TAF AMD
KFAY 300645Z 3007/0106 00000KT 1 1/2SM BR SKC
      TEMPO 3007/3010 1SM BR OVC005
     FM301000 00000KT 1/2SM FG OVC002
     FM301500 VRB02KT P6SM SCT008
     FM301800 VRB03KT P6SM SCT035=



000
FTUS42 KRAH 300645 AAA
TAFFAY
TAF AMD
KFAY 300645Z 3007/0106 00000KT 1 1/2SM BR SKC
      TEMPO 3007/3010 1SM BR OVC005
     FM301000 00000KT 1/2SM FG OVC002
     FM301500 VRB02KT P6SM SCT008
     FM301800 VRB03KT P6SM SCT035=



000
FTUS42 KRAH 300644 AAA
TAFRDU
TAF AMD
KRDU 300644Z 3007/0106 00000KT 1/4SM FG OVC001
      TEMPO 3007/3009 1SM BR OVC005
     FM300900 00000KT 1/2SM FG OVC002
     FM301500 VRB02KT P6SM SCT008
     FM301800 VRB03KT P6SM SCT035=



000
FTUS42 KRAH 300644 AAA
TAFRDU
TAF AMD
KRDU 300644Z 3007/0106 00000KT 1/4SM FG OVC001
      TEMPO 3007/3009 1SM BR OVC005
     FM300900 00000KT 1/2SM FG OVC002
     FM301500 VRB02KT P6SM SCT008
     FM301800 VRB03KT P6SM SCT035=



000
FTUS42 KRAH 300536
TAFGSO
TAF
KGSO 300536Z 3006/0106 00000KT 1/4SM FG OVC002
      TEMPO 3006/3009 1/2SM FG OVC004
     FM300900 00000KT 1/2SM FG OVC002
     FM301500 VRB02KT P6SM SCT008
     FM301800 VRB03KT P6SM SCT035=



000
FTUS42 KRAH 300536
TAFINT
TAF
KINT 300536Z 3006/0106 00000KT 3SM BR SCT005 OVC012
      TEMPO 3006/3009 1/2SM FG OVC005
     FM300900 00000KT 1/2SM FG OVC002
     FM301500 VRB02KT P6SM SCT008
     FM301800 VRB03KT P6SM SCT035=



000
FTUS42 KRAH 300536
TAFRDU
TAF
KRDU 300536Z 3006/0106 00000KT 6SM BR SCT005 BKN100
      TEMPO 3006/3009 1SM BR OVC005
     FM300900 00000KT 1/2SM FG OVC002
     FM301500 VRB02KT P6SM SCT008
     FM301800 VRB03KT P6SM SCT035=



000
FTUS42 KRAH 300536
TAFRWI
TAF
KRWI 300536Z 3006/0106 00000KT 5SM BR FEW002
      TEMPO 3006/3008 2SM BR BKN002
     FM300800 00000KT 1SM BR OVC002
      TEMPO 3008/3012 1/4SM FG OVC001
     FM301200 VRB03KT 3SM BR SCT005
     FM301300 VRB02KT P6SM SCT008
     FM301800 VRB03KT P6SM SCT035=



000
FTUS42 KRAH 300536
TAFFAY
TAF
KFAY 300536Z 3006/0106 35005KT 6SM BR SKC
     FM300730 00000KT 6SM BR SCT005 BKN100
      TEMPO 3008/3010 1SM BR OVC005
     FM301000 00000KT 1/2SM FG OVC002
     FM301500 VRB02KT P6SM SCT008
     FM301800 VRB03KT P6SM SCT035=



000
FTUS42 KRAH 300536
TAFFAY
TAF
KFAY 300536Z 3006/0106 35005KT 6SM BR SKC
     FM300730 00000KT 6SM BR SCT005 BKN100
      TEMPO 3008/3010 1SM BR OVC005
     FM301000 00000KT 1/2SM FG OVC002
     FM301500 VRB02KT P6SM SCT008
     FM301800 VRB03KT P6SM SCT035=



000
FTUS42 KRAH 300536
TAFINT
TAF
KINT 300536Z 3006/0106 00000KT 3SM BR SCT005 OVC012
      TEMPO 3006/3009 1/2SM FG OVC005
     FM300900 00000KT 1/2SM FG OVC002
     FM301500 VRB02KT P6SM SCT008
     FM301800 VRB03KT P6SM SCT035=



000
FTUS42 KRAH 300536
TAFGSO
TAF
KGSO 300536Z 3006/0106 00000KT 1/4SM FG OVC002
      TEMPO 3006/3009 1/2SM FG OVC004
     FM300900 00000KT 1/2SM FG OVC002
     FM301500 VRB02KT P6SM SCT008
     FM301800 VRB03KT P6SM SCT035=



000
FTUS42 KRAH 300536
TAFRDU
TAF
KRDU 300536Z 3006/0106 00000KT 6SM BR SCT005 BKN100
      TEMPO 3006/3009 1SM BR OVC005
     FM300900 00000KT 1/2SM FG OVC002
     FM301500 VRB02KT P6SM SCT008
     FM301800 VRB03KT P6SM SCT035=



000
FTUS42 KRAH 300536
TAFRWI
TAF
KRWI 300536Z 3006/0106 00000KT 5SM BR FEW002
      TEMPO 3006/3008 2SM BR BKN002
     FM300800 00000KT 1SM BR OVC002
      TEMPO 3008/3012 1/4SM FG OVC001
     FM301200 VRB03KT 3SM BR SCT005
     FM301300 VRB02KT P6SM SCT008
     FM301800 VRB03KT P6SM SCT035=



000
FTUS42 KRAH 300504 AAC
TAFRWI
TAF AMD
KRWI 300504Z 3005/3024 00000KT 6SM BR SCT002 SCT070
      TEMPO 3005/3008 2SM BR BKN002
     FM300800 00000KT 1SM BR OVC002
      TEMPO 3008/3012 1/4SM FG OVC001
     FM301400 VRB03KT P6SM SCT005=



000
FTUS42 KRAH 300504 AAC
TAFRWI
TAF AMD
KRWI 300504Z 3005/3024 00000KT 6SM BR SCT002 SCT070
      TEMPO 3005/3008 2SM BR BKN002
     FM300800 00000KT 1SM BR OVC002
      TEMPO 3008/3012 1/4SM FG OVC001
     FM301400 VRB03KT P6SM SCT005=



000
FTUS42 KRAH 300504 AAC
TAFGSO
TAF AMD
KGSO 300504Z 3005/3024 00000KT 1/4SM FG OVC003
      TEMPO 3006/3010 2SM BR BKN004
     FM301300 31002KT P6SM SCT015=



000
FTUS42 KRAH 300504 AAC
TAFGSO
TAF AMD
KGSO 300504Z 3005/3024 00000KT 1/4SM FG OVC003
      TEMPO 3006/3010 2SM BR BKN004
     FM301300 31002KT P6SM SCT015=



000
FTUS42 KRAH 300503 AAB
TAFINT
TAF AMD
KINT 300503Z 3005/3024 00000KT 2SM BR BKN001 OVC012
      TEMPO 3006/3010 1/2SM FG OVC001
     FM301000 00000KT 3SM BR BKN005
     FM301400 31002KT P6SM SCT015=



000
FTUS42 KRAH 300503 AAB
TAFINT
TAF AMD
KINT 300503Z 3005/3024 00000KT 2SM BR BKN001 OVC012
      TEMPO 3006/3010 1/2SM FG OVC001
     FM301000 00000KT 3SM BR BKN005
     FM301400 31002KT P6SM SCT015=



000
FTUS42 KRAH 300418 AAB
TAFRWI
TAF AMD
KRWI 300418Z 3004/3024 00000KT 1SM BR OVC002
      TEMPO 3004/3008 2SM BR SCT002 SCT080
     FM300800 00000KT 1SM BR OVC002
      TEMPO 3008/3012 1/4SM FG OVC001
     FM301400 VRB03KT P6SM SCT005=



000
FTUS42 KRAH 300418 AAB
TAFRWI
TAF AMD
KRWI 300418Z 3004/3024 00000KT 1SM BR OVC002
      TEMPO 3004/3008 2SM BR SCT002 SCT080
     FM300800 00000KT 1SM BR OVC002
      TEMPO 3008/3012 1/4SM FG OVC001
     FM301400 VRB03KT P6SM SCT005=



000
FTUS42 KRAH 300333 AAB
TAFGSO
TAF AMD
KGSO 300333Z 3004/3024 00000KT 1 1/2SM BR SCT004 BKN120
      TEMPO 3004/3008 2SM BR BKN004
     FM300800 00000KT 1/2SM FG OVC002
     FM301400 31002KT P6SM SCT015=



000
FTUS42 KRAH 300333 AAB
TAFGSO
TAF AMD
KGSO 300333Z 3004/3024 00000KT 1 1/2SM BR SCT004 BKN120
      TEMPO 3004/3008 2SM BR BKN004
     FM300800 00000KT 1/2SM FG OVC002
     FM301400 31002KT P6SM SCT015=



000
FTUS42 KRAH 300319 AAA
TAFRWI
TAF AMD
KRWI 300319Z 3003/3024 00000KT 1SM BR OVC002
      TEMPO 3008/3012 1/4SM FG OVC001
     FM301400 VRB03KT P6SM SCT005=



000
FTUS42 KRAH 300319 AAA
TAFRWI
TAF AMD
KRWI 300319Z 3003/3024 00000KT 1SM BR OVC002
      TEMPO 3008/3012 1/4SM FG OVC001
     FM301400 VRB03KT P6SM SCT005=



000
FTUS42 KRAH 300305 AAA
TAFINT
TAF AMD
KINT 300305Z 3003/3024 VRB03KT P6SM OVC070
      TEMPO 3003/3006 1/2SM FG VV007
     FM300600 00000KT 3SM BR BKN005
     FM301400 31002KT P6SM SCT015=



000
FTUS42 KRAH 300305 AAA
TAFINT
TAF AMD
KINT 300305Z 3003/3024 VRB03KT P6SM OVC070
      TEMPO 3003/3006 1/2SM FG VV007
     FM300600 00000KT 3SM BR BKN005
     FM301400 31002KT P6SM SCT015=



000
FTUS42 KRAH 300149 AAA
TAFGSO
TAF AMD
KGSO 300149Z 3002/3024 VRB03KT P6SM SCT015 BKN090
     FM300600 00000KT 3SM BR BKN005
     FM301400 31002KT P6SM SCT015=



000
FTUS42 KRAH 300149 AAA
TAFGSO
TAF AMD
KGSO 300149Z 3002/3024 VRB03KT P6SM SCT015 BKN090
     FM300600 00000KT 3SM BR BKN005
     FM301400 31002KT P6SM SCT015=



000
FTUS42 KRAH 300149 AAA
TAFRDU
TAF AMD
KRDU 300149Z 3002/3024 VRB03KT P6SM SCT020 BKN120
      TEMPO 3002/3006 BKN015
     FM300700 00000KT 3SM BR SCT005 OVC070
      TEMPO 3008/3012 1/2SM FG OVC002
     FM301400 VRB03KT P6SM SCT005=



000
FTUS42 KRAH 300149 AAA
TAFRDU
TAF AMD
KRDU 300149Z 3002/3024 VRB03KT P6SM SCT020 BKN120
      TEMPO 3002/3006 BKN015
     FM300700 00000KT 3SM BR SCT005 OVC070
      TEMPO 3008/3012 1/2SM FG OVC002
     FM301400 VRB03KT P6SM SCT005=



000
FTUS42 KRAH 300009 CCA
TAFRDU
TAF COR
KRDU 300009Z 3000/3024 VRB03KT P6SM FEW015 SCT070 BKN100
      TEMPO 3000/3003 BKN015
     FM300700 00000KT 3SM BR SCT005 OVC070
      TEMPO 3008/3012 1/2SM FG OVC002
     FM301400 VRB03KT P6SM SCT005=



000
FTUS42 KRAH 300009 CCA
TAFRDU
TAF COR
KRDU 300009Z 3000/3024 VRB03KT P6SM FEW015 SCT070 BKN100
      TEMPO 3000/3003 BKN015
     FM300700 00000KT 3SM BR SCT005 OVC070
      TEMPO 3008/3012 1/2SM FG OVC002
     FM301400 VRB03KT P6SM SCT005=



000
FTUS42 KRAH 292326
TAFFAY
TAF
KFAY 292326Z 3000/3024 VRB03KT P6SM BKN100
     FM300700 00000KT 3SM BR SCT005 OVC050
      TEMPO 3008/3012 1/2SM FG OVC005
     FM301400 VRB03KT P6SM SCT005=



000
FTUS42 KRAH 292326
TAFRDU
TAF
KRDU 292326Z 3000/3024 VRB03KT P6SM FEW015 SCT070 BKN100
     FM300700 00000KT 3SM BR SCT005 OVC070
      TEMPO 3008/3012 1/2SM FG OVC002
     FM301400 VRB03KT P6SM SCT005=



000
FTUS42 KRAH 292326
TAFGSO
TAF
KGSO 292326Z 3000/3024 VRB03KT P6SM FEW010 BKN090
     FM300600 00000KT 3SM BR BKN005
     FM301400 31002KT P6SM SCT015=



000
FTUS42 KRAH 292326
TAFRWI
TAF
KRWI 292326Z 3000/3024 VRB03KT 6SM -RA BKN110
     FM300300 00000KT 3SM BR SCT005 BKN110
     FM300700 00000KT 1SM BR BKN005
      TEMPO 3008/3012 1/4SM FG OVC001
     FM301400 VRB03KT P6SM SCT005=



000
FTUS42 KRAH 292326
TAFINT
TAF
KINT 292326Z 3000/3024 VRB03KT P6SM OVC070
     FM300600 00000KT 3SM BR BKN005
     FM301400 31002KT P6SM SCT015=



000
FTUS42 KRAH 292326
TAFGSO
TAF
KGSO 292326Z 3000/3024 VRB03KT P6SM FEW010 BKN090
     FM300600 00000KT 3SM BR BKN005
     FM301400 31002KT P6SM SCT015=



000
FTUS42 KRAH 292326
TAFRDU
TAF
KRDU 292326Z 3000/3024 VRB03KT P6SM FEW015 SCT070 BKN100
     FM300700 00000KT 3SM BR SCT005 OVC070
      TEMPO 3008/3012 1/2SM FG OVC002
     FM301400 VRB03KT P6SM SCT005=



000
FTUS42 KRAH 292326
TAFRWI
TAF
KRWI 292326Z 3000/3024 VRB03KT 6SM -RA BKN110
     FM300300 00000KT 3SM BR SCT005 BKN110
     FM300700 00000KT 1SM BR BKN005
      TEMPO 3008/3012 1/4SM FG OVC001
     FM301400 VRB03KT P6SM SCT005=



000
FTUS42 KRAH 292326
TAFFAY
TAF
KFAY 292326Z 3000/3024 VRB03KT P6SM BKN100
     FM300700 00000KT 3SM BR SCT005 OVC050
      TEMPO 3008/3012 1/2SM FG OVC005
     FM301400 VRB03KT P6SM SCT005=



000
FTUS42 KRAH 292326
TAFINT
TAF
KINT 292326Z 3000/3024 VRB03KT P6SM OVC070
     FM300600 00000KT 3SM BR BKN005
     FM301400 31002KT P6SM SCT015=



000
FTUS42 KRAH 292048 AAC
TAFGSO
TAF AMD
KGSO 292048Z 2921/3018 24006KT P6SM -RA SCT006 BKN090
      TEMPO 2921/3001 BKN006
     FM301300 31002KT P6SM SCT015=



000
FTUS42 KRAH 292048 AAC
TAFGSO
TAF AMD
KGSO 292048Z 2921/3018 24006KT P6SM -RA SCT006 BKN090
      TEMPO 2921/3001 BKN006
     FM301300 31002KT P6SM SCT015=



000
FTUS42 KRAH 292041 AAB
TAFINT
TAF AMD
KINT 292041Z 2921/3018 24006KT P6SM BKN015 BKN060
      TEMPO 2921/2924 BKN006
     FM300000 VRB03KT P6SM -RA OVC100
      TEMPO 3008/3012 00000KT 3SM BR BKN005
     FM301300 31002KT P6SM SCT015=



000
FTUS42 KRAH 292041 AAB
TAFINT
TAF AMD
KINT 292041Z 2921/3018 24006KT P6SM BKN015 BKN060
      TEMPO 2921/2924 BKN006
     FM300000 VRB03KT P6SM -RA OVC100
      TEMPO 3008/3012 00000KT 3SM BR BKN005
     FM301300 31002KT P6SM SCT015=



000
FTUS42 KRAH 292041 AAA
TAFFAY
TAF AMD
KFAY 292041Z 2921/3018 VRB03KT 5SM -RA BR OVC100
     FM300700 00000KT 3SM BR BKN005
      TEMPO 3008/3012 1SM BR OVC002
     FM301400 VRB03KT P6SM SCT005=



000
FTUS42 KRAH 292041 AAA
TAFFAY
TAF AMD
KFAY 292041Z 2921/3018 VRB03KT 5SM -RA BR OVC100
     FM300700 00000KT 3SM BR BKN005
      TEMPO 3008/3012 1SM BR OVC002
     FM301400 VRB03KT P6SM SCT005=



000
FTUS42 KRAH 292036 AAB
TAFGSO
TAF AMD
KGSO 292036Z 2921/3018 24006KT P6SM -RA BKN006
      TEMPO 2921/3001 SCT010 BKN020
     FM301300 31002KT P6SM SCT015=



000
FTUS42 KRAH 292036 AAB
TAFGSO
TAF AMD
KGSO 292036Z 2921/3018 24006KT P6SM -RA BKN006
      TEMPO 2921/3001 SCT010 BKN020
     FM301300 31002KT P6SM SCT015=



000
FTUS42 KRAH 292033 AAA
TAFGSO
TAF AMD
KGSO 292033Z 2921/3018 24006KT P6SM -RA BKN010
      TEMPO 2921/3001 SCT010 BKN020=



000
FTUS42 KRAH 292033 AAA
TAFGSO
TAF AMD
KGSO 292033Z 2921/3018 24006KT P6SM -RA BKN010
      TEMPO 2921/3001 SCT010 BKN020=



000
FTUS42 KRAH 291954 AAA
TAFINT
TAF AMD
KINT 291954Z 2920/3018 VRB03KT P6SM BKN006 OVC050
     FM292030 VRB03KT P6SM -RA OVC100
      TEMPO 3008/3012 00000KT 3SM BR BKN005=



000
FTUS42 KRAH 291954 AAA
TAFINT
TAF AMD
KINT 291954Z 2920/3018 VRB03KT P6SM BKN006 OVC050
     FM292030 VRB03KT P6SM -RA OVC100
      TEMPO 3008/3012 00000KT 3SM BR BKN005=



000
FTUS42 KRAH 291744 CCB
TAFGSO
TAF COR
KGSO 291744Z 2918/3018 VRB03KT 6SM -RA SCT010 OVC100
      TEMPO 3008/3012 00000KT 3SM BR BKN005=



000
FTUS42 KRAH 291744 CCB
TAFGSO
TAF COR
KGSO 291744Z 2918/3018 VRB03KT 6SM -RA SCT010 OVC100
      TEMPO 3008/3012 00000KT 3SM BR BKN005=



000
FTUS42 KRAH 291732 CCA
TAFGSO
TAF COR
KGSO 291732Z 2918/3018 VRB03KT 4SM -RA SCT010 OVC100
     FM291900 VRB03KT P6SM OVC100
      TEMPO 3008/3012 00000KT 3SM BR BKN005=



000
FTUS42 KRAH 291732 CCA
TAFGSO
TAF COR
KGSO 291732Z 2918/3018 VRB03KT 4SM -RA SCT010 OVC100
     FM291900 VRB03KT P6SM OVC100
      TEMPO 3008/3012 00000KT 3SM BR BKN005=



000
FTUS42 KRAH 291720
TAFRDU
TAF
KRDU 291720Z 2918/3018 VRB03KT P6SM -RA OVC100
     FM300700 00000KT 3SM BR BKN005
      TEMPO 3008/3012 1SM BR OVC002
     FM301400 VRB03KT P6SM SCT005=



000
FTUS42 KRAH 291720
TAFGSO
TAF
KGSO 291720Z 2918/3018 VRB03KT P6SM -RA OVC100
      TEMPO 3008/3012 00000KT 3SM BR BKN005=



000
FTUS42 KRAH 291720
TAFFAY
TAF
KFAY 291720Z 2918/3018 VRB03KT 6SM -RA OVC100
     FM300700 00000KT 3SM BR BKN005
      TEMPO 3008/3012 1SM BR OVC002
     FM301400 VRB03KT P6SM SCT005=



000
FTUS42 KRAH 291720
TAFRWI
TAF
KRWI 291720Z 2918/3018 36005KT 6SM -RA OVC120
     FM300700 00000KT 2SM BR BKN005
      TEMPO 3008/3012 1/2SM FG OVC001
     FM301400 VRB03KT P6SM SCT005=



000
FTUS42 KRAH 291720
TAFINT
TAF
KINT 291720Z 2918/3018 VRB03KT P6SM -RA OVC100
      TEMPO 3008/3012 00000KT 3SM BR BKN005=



000
FTUS42 KRAH 291720
TAFRWI
TAF
KRWI 291720Z 2918/3018 36005KT 6SM -RA OVC120
     FM300700 00000KT 2SM BR BKN005
      TEMPO 3008/3012 1/2SM FG OVC001
     FM301400 VRB03KT P6SM SCT005=



000
FTUS42 KRAH 291720
TAFRDU
TAF
KRDU 291720Z 2918/3018 VRB03KT P6SM -RA OVC100
     FM300700 00000KT 3SM BR BKN005
      TEMPO 3008/3012 1SM BR OVC002
     FM301400 VRB03KT P6SM SCT005=



000
FTUS42 KRAH 291720
TAFFAY
TAF
KFAY 291720Z 2918/3018 VRB03KT 6SM -RA OVC100
     FM300700 00000KT 3SM BR BKN005
      TEMPO 3008/3012 1SM BR OVC002
     FM301400 VRB03KT P6SM SCT005=



000
FTUS42 KRAH 291720
TAFINT
TAF
KINT 291720Z 2918/3018 VRB03KT P6SM -RA OVC100
      TEMPO 3008/3012 00000KT 3SM BR BKN005=



000
FTUS42 KRAH 291720
TAFGSO
TAF
KGSO 291720Z 2918/3018 VRB03KT P6SM -RA OVC100
      TEMPO 3008/3012 00000KT 3SM BR BKN005=



000
FTUS42 KRAH 291502 AAA
TAFRWI
TAF AMD
KRWI 291502Z 2915/3012 36005KT 6SM -RA OVC120
     FM300700 00000KT 2SM BR BKN005
      TEMPO 3008/3012 1/2SM FG OVC001=



000
FTUS42 KRAH 291502 AAA
TAFRWI
TAF AMD
KRWI 291502Z 2915/3012 36005KT 6SM -RA OVC120
     FM300700 00000KT 2SM BR BKN005
      TEMPO 3008/3012 1/2SM FG OVC001=



000
FTUS42 KRAH 291501 AAA
TAFFAY
TAF AMD
KFAY 291501Z 2915/3012 VRB03KT 6SM -RA OVC120
     FM300700 00000KT 3SM BR BKN005
      TEMPO 3008/3012 2SM BR OVC002=



000
FTUS42 KRAH 291501 AAA
TAFFAY
TAF AMD
KFAY 291501Z 2915/3012 VRB03KT 6SM -RA OVC120
     FM300700 00000KT 3SM BR BKN005
      TEMPO 3008/3012 2SM BR OVC002=



000
FTUS42 KRAH 291500 AAA
TAFRDU
TAF AMD
KRDU 291500Z 2915/3012 VRB03KT P6SM -RA OVC100
     FM300700 00000KT 3SM BR BKN005
      TEMPO 3008/3012 00000KT 2SM BR OVC002=



000
FTUS42 KRAH 291500 AAA
TAFRDU
TAF AMD
KRDU 291500Z 2915/3012 VRB03KT P6SM -RA OVC100
     FM300700 00000KT 3SM BR BKN005
      TEMPO 3008/3012 00000KT 2SM BR OVC002=



000
FTUS42 KRAH 291457 AAA
TAFINT
TAF AMD
KINT 291457Z 2915/3012 VRB03KT P6SM -RA OVC100
      TEMPO 3009/3012 00000KT 3SM BR SCT003=



000
FTUS42 KRAH 291457 AAA
TAFINT
TAF AMD
KINT 291457Z 2915/3012 VRB03KT P6SM -RA OVC100
      TEMPO 3009/3012 00000KT 3SM BR SCT003=



000
FTUS42 KRAH 291457 AAA
TAFGSO
TAF AMD
KGSO 291457Z 2915/3012 VRB03KT P6SM -RA OVC100
      TEMPO 3009/3012 00000KT 3SM BR SCT003=



    US Dept of Commerce
    National Oceanic and Atmospheric Administration
    National Weather Service
    1325 East West Highway
    Silver Spring, MD 20910
    Page Author: NWS Internet Services Team
Disclaimer
Information Quality
Credits
Glossary
Privacy Policy
Freedom of Information Act (FOIA)
About Us
Career Opportunities